<?xml version="1.0" encoding="UTF-8" standalone="no" ?>
<gpx xmlns="http://www.topografix.com/GPX/1/1" xmlns:xsi="http://www.w3.org/2001/XMLSchema-instance" xsi:schemaLocation="http://www.topografix.com/GPX/1/1 http://www.topografix.com/GPX/1/1/gpx.xsd" version="1.1" creator="VisuGPX - https://www.visugpx.com">
  <metadata>
    <name>Pic-Louvette 45 km 2025</name>
  </metadata>
  <trk>
    <name><![CDATA[Pic-Louvette 45 km 2025]]></name>
    <trkseg>
      <trkpt lat="48.7114" lon="-0.54053">
        <ele>209.776733</ele>
        <time>2024-11-09T18:20:26.320Z</time>
      </trkpt>
      <trkpt lat="48.71152" lon="-0.54053">
        <ele>209.776733</ele>
        <time>2024-11-09T18:20:29.370Z</time>
      </trkpt>
      <trkpt lat="48.71152" lon="-0.54059">
        <ele>209.776733</ele>
        <time>2024-11-09T18:20:30.118Z</time>
      </trkpt>
      <trkpt lat="48.71154" lon="-0.54124">
        <ele>209.776733</ele>
        <time>2024-11-09T18:20:37.579Z</time>
      </trkpt>
      <trkpt lat="48.71149" lon="-0.54158">
        <ele>209.776733</ele>
        <time>2024-11-09T18:20:41.267Z</time>
      </trkpt>
      <trkpt lat="48.71137" lon="-0.54186">
        <ele>209.465955</ele>
        <time>2024-11-09T18:20:44.720Z</time>
      </trkpt>
      <trkpt lat="48.71043" lon="-0.54307">
        <ele>206.84463</ele>
        <time>2024-11-09T18:21:02.908Z</time>
      </trkpt>
      <trkpt lat="48.71041" lon="-0.5431">
        <ele>206.78359</ele>
        <time>2024-11-09T18:21:03.345Z</time>
      </trkpt>
      <trkpt lat="48.71011" lon="-0.54346">
        <ele>205.962866</ele>
        <time>2024-11-09T18:21:09.308Z</time>
      </trkpt>
      <trkpt lat="48.70926" lon="-0.54452">
        <ele>205.782151</ele>
        <time>2024-11-09T18:21:29.389Z</time>
      </trkpt>
      <trkpt lat="48.70894" lon="-0.54492">
        <ele>205.716524</ele>
        <time>2024-11-09T18:21:38.559Z</time>
      </trkpt>
      <trkpt lat="48.70874" lon="-0.54523">
        <ele>205.671503</ele>
        <time>2024-11-09T18:21:45.004Z</time>
      </trkpt>
      <trkpt lat="48.70835" lon="-0.54605">
        <ele>206.102243</ele>
        <time>2024-11-09T18:22:00.847Z</time>
      </trkpt>
      <trkpt lat="48.70835" lon="-0.54605">
        <ele>206.102243</ele>
        <time>2024-11-09T18:22:00.852Z</time>
      </trkpt>
      <trkpt lat="48.70835" lon="-0.54606">
        <ele>206.108423</ele>
        <time>2024-11-09T18:22:01.262Z</time>
      </trkpt>
      <trkpt lat="48.70795" lon="-0.54683">
        <ele>206.526037</ele>
        <time>2024-11-09T18:22:28.964Z</time>
      </trkpt>
      <trkpt lat="48.70844" lon="-0.54758">
        <ele>206.839301</ele>
        <time>2024-11-09T18:22:58.880Z</time>
      </trkpt>
      <trkpt lat="48.70872" lon="-0.5486">
        <ele>206.866163</ele>
        <time>2024-11-09T18:23:29.836Z</time>
      </trkpt>
      <trkpt lat="48.70871" lon="-0.54831">
        <ele>206.873095</ele>
        <time>2024-11-09T18:23:37.811Z</time>
      </trkpt>
      <trkpt lat="48.70872" lon="-0.54831">
        <ele>206.873466</ele>
        <time>2024-11-09T18:23:38.028Z</time>
      </trkpt>
      <trkpt lat="48.70972" lon="-0.54838">
        <ele>206.781898</ele>
        <time>2024-11-09T18:23:58.203Z</time>
      </trkpt>
      <trkpt lat="48.7107" lon="-0.54869">
        <ele>206.443951</ele>
        <time>2024-11-09T18:24:17.885Z</time>
      </trkpt>
      <trkpt lat="48.71118" lon="-0.54897">
        <ele>206.363618</ele>
        <time>2024-11-09T18:24:28.675Z</time>
      </trkpt>
      <trkpt lat="48.71287" lon="-0.55022">
        <ele>208.608671</ele>
        <time>2024-11-09T18:25:21.176Z</time>
      </trkpt>
      <trkpt lat="48.71474" lon="-0.55184">
        <ele>211.932632</ele>
        <time>2024-11-09T18:26:29.180Z</time>
      </trkpt>
      <trkpt lat="48.71927" lon="-0.5556">
        <ele>213.328651</ele>
        <time>2024-11-09T18:28:24.164Z</time>
      </trkpt>
      <trkpt lat="48.71996" lon="-0.55591">
        <ele>212.551426</ele>
        <time>2024-11-09T18:28:38.120Z</time>
      </trkpt>
      <trkpt lat="48.72074" lon="-0.55603">
        <ele>211.712881</ele>
        <time>2024-11-09T18:28:52.135Z</time>
      </trkpt>
      <trkpt lat="48.72155" lon="-0.55601">
        <ele>210.20461</ele>
        <time>2024-11-09T18:29:06.427Z</time>
      </trkpt>
      <trkpt lat="48.72453" lon="-0.5547">
        <ele>204.4571</ele>
        <time>2024-11-09T18:30:01.450Z</time>
      </trkpt>
      <trkpt lat="48.72483" lon="-0.5546">
        <ele>203.958454</ele>
        <time>2024-11-09T18:30:06.729Z</time>
      </trkpt>
      <trkpt lat="48.72479" lon="-0.55477">
        <ele>203.755654</ele>
        <time>2024-11-09T18:30:08.624Z</time>
      </trkpt>
      <trkpt lat="48.72474" lon="-0.55491">
        <ele>203.585939</ele>
        <time>2024-11-09T18:30:10.216Z</time>
      </trkpt>
      <trkpt lat="48.72522" lon="-0.55605">
        <ele>202.106121</ele>
        <time>2024-11-09T18:30:25.287Z</time>
      </trkpt>
      <trkpt lat="48.72522" lon="-0.55631">
        <ele>201.909675</ele>
        <time>2024-11-09T18:30:28.331Z</time>
      </trkpt>
      <trkpt lat="48.725" lon="-0.55678">
        <ele>201.658174</ele>
        <time>2024-11-09T18:30:35.279Z</time>
      </trkpt>
      <trkpt lat="48.72485" lon="-0.5569">
        <ele>201.547094</ele>
        <time>2024-11-09T18:30:38.551Z</time>
      </trkpt>
      <trkpt lat="48.72453" lon="-0.55704">
        <ele>201.331443</ele>
        <time>2024-11-09T18:30:45.140Z</time>
      </trkpt>
      <trkpt lat="48.72441" lon="-0.55713">
        <ele>201.239809</ele>
        <time>2024-11-09T18:30:47.941Z</time>
      </trkpt>
      <trkpt lat="48.72429" lon="-0.55738">
        <ele>201.107182</ele>
        <time>2024-11-09T18:30:51.863Z</time>
      </trkpt>
      <trkpt lat="48.72406" lon="-0.55753">
        <ele>200.943296</ele>
        <time>2024-11-09T18:30:56.658Z</time>
      </trkpt>
      <trkpt lat="48.72395" lon="-0.55765">
        <ele>200.857282</ele>
        <time>2024-11-09T18:30:59.094Z</time>
      </trkpt>
      <trkpt lat="48.72381" lon="-0.55809">
        <ele>200.64185</ele>
        <time>2024-11-09T18:31:04.935Z</time>
      </trkpt>
      <trkpt lat="48.7236" lon="-0.55851">
        <ele>200.407509</ele>
        <time>2024-11-09T18:31:15.062Z</time>
      </trkpt>
      <trkpt lat="48.72332" lon="-0.55941">
        <ele>199.962388</ele>
        <time>2024-11-09T18:31:34.459Z</time>
      </trkpt>
      <trkpt lat="48.72323" lon="-0.55952">
        <ele>199.881818</ele>
        <time>2024-11-09T18:31:37.975Z</time>
      </trkpt>
      <trkpt lat="48.72284" lon="-0.55972">
        <ele>199.603715</ele>
        <time>2024-11-09T18:31:50.454Z</time>
      </trkpt>
      <trkpt lat="48.72247" lon="-0.55983">
        <ele>199.704309</ele>
        <time>2024-11-09T18:32:02.347Z</time>
      </trkpt>
      <trkpt lat="48.72242" lon="-0.55988">
        <ele>199.730528</ele>
        <time>2024-11-09T18:32:04.597Z</time>
      </trkpt>
      <trkpt lat="48.72239" lon="-0.55996">
        <ele>199.752479</ele>
        <time>2024-11-09T18:32:06.512Z</time>
      </trkpt>
      <trkpt lat="48.72257" lon="-0.56057">
        <ele>199.922536</ele>
        <time>2024-11-09T18:32:21.744Z</time>
      </trkpt>
      <trkpt lat="48.72293" lon="-0.56146">
        <ele>200.191049</ele>
        <time>2024-11-09T18:32:45.852Z</time>
      </trkpt>
      <trkpt lat="48.72295" lon="-0.56158">
        <ele>200.221455</ele>
        <time>2024-11-09T18:32:48.554Z</time>
      </trkpt>
      <trkpt lat="48.72291" lon="-0.56171">
        <ele>200.259264</ele>
        <time>2024-11-09T18:32:51.894Z</time>
      </trkpt>
      <trkpt lat="48.72205" lon="-0.56269">
        <ele>200.904371</ele>
        <time>2024-11-09T18:33:28.588Z</time>
      </trkpt>
      <trkpt lat="48.72197" lon="-0.56281">
        <ele>200.971596</ele>
        <time>2024-11-09T18:33:32.427Z</time>
      </trkpt>
      <trkpt lat="48.72196" lon="-0.56288">
        <ele>201.001356</ele>
        <time>2024-11-09T18:33:34.114Z</time>
      </trkpt>
      <trkpt lat="48.72208" lon="-0.56313">
        <ele>201.122633</ele>
        <time>2024-11-09T18:33:41.126Z</time>
      </trkpt>
      <trkpt lat="48.72256" lon="-0.56374">
        <ele>201.58859</ele>
        <time>2024-11-09T18:34:03.659Z</time>
      </trkpt>
      <trkpt lat="48.72257" lon="-0.56382">
        <ele>201.643995</ele>
        <time>2024-11-09T18:34:05.724Z</time>
      </trkpt>
      <trkpt lat="48.72256" lon="-0.56393">
        <ele>201.712503</ele>
        <time>2024-11-09T18:34:08.272Z</time>
      </trkpt>
      <trkpt lat="48.72133" lon="-0.56597">
        <ele>203.095071</ele>
        <time>2024-11-09T18:35:16.525Z</time>
      </trkpt>
      <trkpt lat="48.72343" lon="-0.56775">
        <ele>202.635003</ele>
        <time>2024-11-09T18:35:59.538Z</time>
      </trkpt>
      <trkpt lat="48.72319" lon="-0.56943">
        <ele>202.795767</ele>
        <time>2024-11-09T18:36:21.764Z</time>
      </trkpt>
      <trkpt lat="48.72293" lon="-0.57102">
        <ele>204.119407</ele>
        <time>2024-11-09T18:36:50.826Z</time>
      </trkpt>
      <trkpt lat="48.7229" lon="-0.57127">
        <ele>204.328582</ele>
        <time>2024-11-09T18:36:56.269Z</time>
      </trkpt>
      <trkpt lat="48.7229" lon="-0.57171">
        <ele>204.711766</ele>
        <time>2024-11-09T18:37:05.585Z</time>
      </trkpt>
      <trkpt lat="48.7229" lon="-0.57212">
        <ele>205.172862</ele>
        <time>2024-11-09T18:37:14.787Z</time>
      </trkpt>
      <trkpt lat="48.72286" lon="-0.57232">
        <ele>205.396609</ele>
        <time>2024-11-09T18:37:19.162Z</time>
      </trkpt>
      <trkpt lat="48.72244" lon="-0.57342">
        <ele>206.804102</ele>
        <time>2024-11-09T18:37:41.822Z</time>
      </trkpt>
      <trkpt lat="48.72234" lon="-0.57359">
        <ele>207.058341</ele>
        <time>2024-11-09T18:37:45.790Z</time>
      </trkpt>
      <trkpt lat="48.72275" lon="-0.57402">
        <ele>208.027233</ele>
        <time>2024-11-09T18:37:59.282Z</time>
      </trkpt>
      <trkpt lat="48.72293" lon="-0.5743">
        <ele>208.6693</ele>
        <time>2024-11-09T18:38:06.656Z</time>
      </trkpt>
      <trkpt lat="48.72302" lon="-0.57449">
        <ele>209.046914</ele>
        <time>2024-11-09T18:38:11.063Z</time>
      </trkpt>
      <trkpt lat="48.72358" lon="-0.57564">
        <ele>211.349841</ele>
        <time>2024-11-09T18:38:53.207Z</time>
      </trkpt>
      <trkpt lat="48.7237" lon="-0.57604">
        <ele>212.078259</ele>
        <time>2024-11-09T18:39:08.086Z</time>
      </trkpt>
      <trkpt lat="48.72398" lon="-0.57779">
        <ele>216.240488</ele>
        <time>2024-11-09T18:40:07.320Z</time>
      </trkpt>
      <trkpt lat="48.7241" lon="-0.57808">
        <ele>217.025391</ele>
        <time>2024-11-09T18:40:18.378Z</time>
      </trkpt>
      <trkpt lat="48.72421" lon="-0.57851">
        <ele>218.091234</ele>
        <time>2024-11-09T18:40:33.461Z</time>
      </trkpt>
      <trkpt lat="48.72452" lon="-0.58015">
        <ele>221.261991</ele>
        <time>2024-11-09T18:41:27.818Z</time>
      </trkpt>
      <trkpt lat="48.72501" lon="-0.58218">
        <ele>223.859328</ele>
        <time>2024-11-09T18:42:27.066Z</time>
      </trkpt>
      <trkpt lat="48.72544" lon="-0.5818">
        <ele>224.260807</ele>
        <time>2024-11-09T18:42:36.970Z</time>
      </trkpt>
      <trkpt lat="48.72556" lon="-0.58164">
        <ele>224.387932</ele>
        <time>2024-11-09T18:42:39.983Z</time>
      </trkpt>
      <trkpt lat="48.72559" lon="-0.58152">
        <ele>224.454413</ele>
        <time>2024-11-09T18:42:41.564Z</time>
      </trkpt>
      <trkpt lat="48.72567" lon="-0.58141">
        <ele>224.542365</ele>
        <time>2024-11-09T18:42:43.651Z</time>
      </trkpt>
      <trkpt lat="48.72578" lon="-0.58138">
        <ele>224.630256</ele>
        <time>2024-11-09T18:42:45.733Z</time>
      </trkpt>
      <trkpt lat="48.72584" lon="-0.5814">
        <ele>224.674934</ele>
        <time>2024-11-09T18:42:46.766Z</time>
      </trkpt>
      <trkpt lat="48.72592" lon="-0.58147">
        <ele>224.750193</ele>
        <time>2024-11-09T18:42:48.530Z</time>
      </trkpt>
      <trkpt lat="48.72597" lon="-0.5816">
        <ele>224.82657</ele>
        <time>2024-11-09T18:42:50.428Z</time>
      </trkpt>
      <trkpt lat="48.72598" lon="-0.58176">
        <ele>224.903457</ele>
        <time>2024-11-09T18:42:52.430Z</time>
      </trkpt>
      <trkpt lat="48.72594" lon="-0.5819">
        <ele>224.98193</ele>
        <time>2024-11-09T18:42:54.739Z</time>
      </trkpt>
      <trkpt lat="48.72585" lon="-0.58201">
        <ele>225.069458</ele>
        <time>2024-11-09T18:42:57.308Z</time>
      </trkpt>
      <trkpt lat="48.72573" lon="-0.58203">
        <ele>225.156827</ele>
        <time>2024-11-09T18:42:59.943Z</time>
      </trkpt>
      <trkpt lat="48.72565" lon="-0.58198">
        <ele>225.222208</ele>
        <time>2024-11-09T18:43:02.025Z</time>
      </trkpt>
      <trkpt lat="48.7255" lon="-0.58195">
        <ele>225.334593</ele>
        <time>2024-11-09T18:43:05.564Z</time>
      </trkpt>
      <trkpt lat="48.72516" lon="-0.58214">
        <ele>225.60682</ele>
        <time>2024-11-09T18:43:14.423Z</time>
      </trkpt>
      <trkpt lat="48.72501" lon="-0.58218">
        <ele>225.724589</ele>
        <time>2024-11-09T18:43:18.441Z</time>
      </trkpt>
      <trkpt lat="48.7249" lon="-0.58226">
        <ele>225.81119</ele>
        <time>2024-11-09T18:43:21.497Z</time>
      </trkpt>
      <trkpt lat="48.72406" lon="-0.58278">
        <ele>226.036999</ele>
        <time>2024-11-09T18:43:43.495Z</time>
      </trkpt>
      <trkpt lat="48.72337" lon="-0.5832">
        <ele>225.960992</ele>
        <time>2024-11-09T18:43:57.105Z</time>
      </trkpt>
      <trkpt lat="48.72292" lon="-0.58348">
        <ele>225.911796</ele>
        <time>2024-11-09T18:44:05.264Z</time>
      </trkpt>
      <trkpt lat="48.72243" lon="-0.58373">
        <ele>225.563884</ele>
        <time>2024-11-09T18:44:13.880Z</time>
      </trkpt>
      <trkpt lat="48.72169" lon="-0.58393">
        <ele>225.026819</ele>
        <time>2024-11-09T18:44:26.691Z</time>
      </trkpt>
      <trkpt lat="48.72109" lon="-0.58399">
        <ele>224.636792</ele>
        <time>2024-11-09T18:44:37.864Z</time>
      </trkpt>
      <trkpt lat="48.72081" lon="-0.58397">
        <ele>224.683827</ele>
        <time>2024-11-09T18:44:43.293Z</time>
      </trkpt>
      <trkpt lat="48.71889" lon="-0.58382">
        <ele>225.467446</ele>
        <time>2024-11-09T18:45:22.423Z</time>
      </trkpt>
      <trkpt lat="48.71848" lon="-0.58379">
        <ele>225.957827</ele>
        <time>2024-11-09T18:45:31.823Z</time>
      </trkpt>
      <trkpt lat="48.7186" lon="-0.58458">
        <ele>226.595873</ele>
        <time>2024-11-09T18:45:45.947Z</time>
      </trkpt>
      <trkpt lat="48.71801" lon="-0.5847">
        <ele>227.631675</ele>
        <time>2024-11-09T18:46:11.342Z</time>
      </trkpt>
      <trkpt lat="48.71669" lon="-0.58532">
        <ele>231.774377</ele>
        <time>2024-11-09T18:47:17.266Z</time>
      </trkpt>
      <trkpt lat="48.71632" lon="-0.58539">
        <ele>232.74832</ele>
        <time>2024-11-09T18:47:35.706Z</time>
      </trkpt>
      <trkpt lat="48.71626" lon="-0.58546">
        <ele>232.903305</ele>
        <time>2024-11-09T18:47:39.406Z</time>
      </trkpt>
      <trkpt lat="48.71625" lon="-0.58557">
        <ele>233.063848</ele>
        <time>2024-11-09T18:47:43.217Z</time>
      </trkpt>
      <trkpt lat="48.71598" lon="-0.58616">
        <ele>234.039311</ele>
        <time>2024-11-09T18:48:05.701Z</time>
      </trkpt>
      <trkpt lat="48.71573" lon="-0.58641">
        <ele>234.673114</ele>
        <time>2024-11-09T18:48:19.125Z</time>
      </trkpt>
      <trkpt lat="48.71528" lon="-0.58673">
        <ele>235.687704</ele>
        <time>2024-11-09T18:48:38.105Z</time>
      </trkpt>
      <trkpt lat="48.71524" lon="-0.58682">
        <ele>235.843068</ele>
        <time>2024-11-09T18:48:40.740Z</time>
      </trkpt>
      <trkpt lat="48.71485" lon="-0.58698">
        <ele>235.902404</ele>
        <time>2024-11-09T18:48:53.639Z</time>
      </trkpt>
      <trkpt lat="48.71447" lon="-0.58721">
        <ele>235.400002</ele>
        <time>2024-11-09T18:49:05.877Z</time>
      </trkpt>
      <trkpt lat="48.71434" lon="-0.58723">
        <ele>235.235562</ele>
        <time>2024-11-09T18:49:09.734Z</time>
      </trkpt>
      <trkpt lat="48.71391" lon="-0.58746">
        <ele>234.676899</ele>
        <time>2024-11-09T18:49:22.418Z</time>
      </trkpt>
      <trkpt lat="48.71374" lon="-0.5876">
        <ele>234.443108</ele>
        <time>2024-11-09T18:49:27.653Z</time>
      </trkpt>
      <trkpt lat="48.71333" lon="-0.58803">
        <ele>233.665002</ele>
        <time>2024-11-09T18:49:41.096Z</time>
      </trkpt>
      <trkpt lat="48.71318" lon="-0.58832">
        <ele>233.003819</ele>
        <time>2024-11-09T18:49:47.715Z</time>
      </trkpt>
      <trkpt lat="48.71312" lon="-0.58847">
        <ele>232.706384</ele>
        <time>2024-11-09T18:49:50.667Z</time>
      </trkpt>
      <trkpt lat="48.71282" lon="-0.58884">
        <ele>231.679371</ele>
        <time>2024-11-09T18:50:00.762Z</time>
      </trkpt>
      <trkpt lat="48.71262" lon="-0.58905">
        <ele>231.017469</ele>
        <time>2024-11-09T18:50:07.191Z</time>
      </trkpt>
      <trkpt lat="48.71178" lon="-0.5904">
        <ele>229.520848</ele>
        <time>2024-11-09T18:50:39.488Z</time>
      </trkpt>
      <trkpt lat="48.71164" lon="-0.59088">
        <ele>229.726276</ele>
        <time>2024-11-09T18:50:50.035Z</time>
      </trkpt>
      <trkpt lat="48.71135" lon="-0.59099">
        <ele>229.904115</ele>
        <time>2024-11-09T18:51:01.577Z</time>
      </trkpt>
      <trkpt lat="48.71104" lon="-0.59158">
        <ele>230.203638</ele>
        <time>2024-11-09T18:51:24.875Z</time>
      </trkpt>
      <trkpt lat="48.71092" lon="-0.59233">
        <ele>231.542607</ele>
        <time>2024-11-09T18:51:52.552Z</time>
      </trkpt>
      <trkpt lat="48.71083" lon="-0.59291">
        <ele>232.813997</ele>
        <time>2024-11-09T18:52:10.875Z</time>
      </trkpt>
      <trkpt lat="48.71078" lon="-0.59297">
        <ele>233.029461</ele>
        <time>2024-11-09T18:52:13.936Z</time>
      </trkpt>
      <trkpt lat="48.71065" lon="-0.59303">
        <ele>233.484324</ele>
        <time>2024-11-09T18:52:20.181Z</time>
      </trkpt>
      <trkpt lat="48.71049" lon="-0.59302">
        <ele>233.998746</ele>
        <time>2024-11-09T18:52:26.267Z</time>
      </trkpt>
      <trkpt lat="48.71037" lon="-0.59306">
        <ele>234.376977</ele>
        <time>2024-11-09T18:52:30.435Z</time>
      </trkpt>
      <trkpt lat="48.70967" lon="-0.59345">
        <ele>236.715935</ele>
        <time>2024-11-09T18:52:53.129Z</time>
      </trkpt>
      <trkpt lat="48.70943" lon="-0.59354">
        <ele>237.378154</ele>
        <time>2024-11-09T18:52:59.528Z</time>
      </trkpt>
      <trkpt lat="48.70927" lon="-0.59356">
        <ele>237.825414</ele>
        <time>2024-11-09T18:53:03.972Z</time>
      </trkpt>
      <trkpt lat="48.70917" lon="-0.59348">
        <ele>238.131655</ele>
        <time>2024-11-09T18:53:07.161Z</time>
      </trkpt>
      <trkpt lat="48.70899" lon="-0.59359">
        <ele>238.654904</ele>
        <time>2024-11-09T18:53:12.822Z</time>
      </trkpt>
      <trkpt lat="48.70863" lon="-0.59375">
        <ele>239.700798</ele>
        <time>2024-11-09T18:53:25.359Z</time>
      </trkpt>
      <trkpt lat="48.70848" lon="-0.59392">
        <ele>240.202643</ele>
        <time>2024-11-09T18:53:32.052Z</time>
      </trkpt>
      <trkpt lat="48.70841" lon="-0.59384">
        <ele>240.446064</ele>
        <time>2024-11-09T18:53:36.679Z</time>
      </trkpt>
      <trkpt lat="48.70759" lon="-0.59403">
        <ele>243.198117</ele>
        <time>2024-11-09T18:54:22.893Z</time>
      </trkpt>
      <trkpt lat="48.7068" lon="-0.59426">
        <ele>246.059684</ele>
        <time>2024-11-09T18:55:04.211Z</time>
      </trkpt>
      <trkpt lat="48.70715" lon="-0.59533">
        <ele>247.795585</ele>
        <time>2024-11-09T18:55:36.752Z</time>
      </trkpt>
      <trkpt lat="48.70442" lon="-0.59811">
        <ele>250.197562</ele>
        <time>2024-11-09T18:57:28.568Z</time>
      </trkpt>
      <trkpt lat="48.70362" lon="-0.59896">
        <ele>251.960595</ele>
        <time>2024-11-09T18:58:06.787Z</time>
      </trkpt>
      <trkpt lat="48.70281" lon="-0.5995">
        <ele>253.568079</ele>
        <time>2024-11-09T18:58:46.781Z</time>
      </trkpt>
      <trkpt lat="48.70149" lon="-0.60045">
        <ele>256.345483</ele>
        <time>2024-11-09T18:59:51.963Z</time>
      </trkpt>
      <trkpt lat="48.70036" lon="-0.59696">
        <ele>253.964633</ele>
        <time>2024-11-09T19:00:33.976Z</time>
      </trkpt>
      <trkpt lat="48.6986" lon="-0.59147">
        <ele>247.177152</ele>
        <time>2024-11-09T19:02:27.226Z</time>
      </trkpt>
      <trkpt lat="48.6992" lon="-0.59071">
        <ele>245.534895</ele>
        <time>2024-11-09T19:02:47.834Z</time>
      </trkpt>
      <trkpt lat="48.69931" lon="-0.59014">
        <ele>244.737883</ele>
        <time>2024-11-09T19:02:58.179Z</time>
      </trkpt>
      <trkpt lat="48.69928" lon="-0.58977">
        <ele>244.242724</ele>
        <time>2024-11-09T19:03:04.652Z</time>
      </trkpt>
      <trkpt lat="48.69885" lon="-0.58835">
        <ele>242.147583</ele>
        <time>2024-11-09T19:03:33.243Z</time>
      </trkpt>
      <trkpt lat="48.69862" lon="-0.58762">
        <ele>241.623098</ele>
        <time>2024-11-09T19:03:48.612Z</time>
      </trkpt>
      <trkpt lat="48.69851" lon="-0.58742">
        <ele>241.509637</ele>
        <time>2024-11-09T19:03:53.738Z</time>
      </trkpt>
      <trkpt lat="48.69836" lon="-0.58725">
        <ele>241.387096</ele>
        <time>2024-11-09T19:03:59.387Z</time>
      </trkpt>
      <trkpt lat="48.69787" lon="-0.58686">
        <ele>241.030731</ele>
        <time>2024-11-09T19:04:15.225Z</time>
      </trkpt>
      <trkpt lat="48.69747" lon="-0.58658">
        <ele>240.74527</ele>
        <time>2024-11-09T19:04:28.740Z</time>
      </trkpt>
      <trkpt lat="48.69738" lon="-0.58647">
        <ele>241.031072</ele>
        <time>2024-11-09T19:04:33.071Z</time>
      </trkpt>
      <trkpt lat="48.69726" lon="-0.58622">
        <ele>241.835862</ele>
        <time>2024-11-09T19:04:40.782Z</time>
      </trkpt>
      <trkpt lat="48.69723" lon="-0.58621">
        <ele>241.96432</ele>
        <time>2024-11-09T19:04:42.119Z</time>
      </trkpt>
      <trkpt lat="48.69723" lon="-0.58621">
        <ele>241.96432</ele>
        <time>2024-11-09T19:04:42.139Z</time>
      </trkpt>
      <trkpt lat="48.69702" lon="-0.58597">
        <ele>243.001714</ele>
        <time>2024-11-09T19:04:53.203Z</time>
      </trkpt>
      <trkpt lat="48.69661" lon="-0.58644">
        <ele>245.081305</ele>
        <time>2024-11-09T19:05:15.391Z</time>
      </trkpt>
      <trkpt lat="48.6964" lon="-0.58721">
        <ele>247.275784</ele>
        <time>2024-11-09T19:05:38.822Z</time>
      </trkpt>
      <trkpt lat="48.69595" lon="-0.58769">
        <ele>250.900148</ele>
        <time>2024-11-09T19:06:02.444Z</time>
      </trkpt>
      <trkpt lat="48.6955" lon="-0.58817">
        <ele>255.122541</ele>
        <time>2024-11-09T19:06:26.076Z</time>
      </trkpt>
      <trkpt lat="48.69513" lon="-0.58909">
        <ele>260.581627</ele>
        <time>2024-11-09T19:06:56.609Z</time>
      </trkpt>
      <trkpt lat="48.69475" lon="-0.59001">
        <ele>263.196699</ele>
        <time>2024-11-09T19:07:27.150Z</time>
      </trkpt>
      <trkpt lat="48.69494" lon="-0.59031">
        <ele>263.915578</ele>
        <time>2024-11-09T19:07:38.914Z</time>
      </trkpt>
      <trkpt lat="48.69495" lon="-0.59035">
        <ele>263.984883</ele>
        <time>2024-11-09T19:07:40.008Z</time>
      </trkpt>
      <trkpt lat="48.69494" lon="-0.59064">
        <ele>264.502551</ele>
        <time>2024-11-09T19:07:47.995Z</time>
      </trkpt>
      <trkpt lat="48.69501" lon="-0.59101">
        <ele>265.161784</ele>
        <time>2024-11-09T19:07:57.084Z</time>
      </trkpt>
      <trkpt lat="48.69512" lon="-0.59162">
        <ele>266.250625</ele>
        <time>2024-11-09T19:08:10.068Z</time>
      </trkpt>
      <trkpt lat="48.69531" lon="-0.59207">
        <ele>265.927105</ele>
        <time>2024-11-09T19:08:20.191Z</time>
      </trkpt>
      <trkpt lat="48.69532" lon="-0.59219">
        <ele>265.784305</ele>
        <time>2024-11-09T19:08:22.515Z</time>
      </trkpt>
      <trkpt lat="48.69539" lon="-0.59357">
        <ele>264.180085</ele>
        <time>2024-11-09T19:08:47.661Z</time>
      </trkpt>
      <trkpt lat="48.6954" lon="-0.59362">
        <ele>264.117403</ele>
        <time>2024-11-09T19:08:48.620Z</time>
      </trkpt>
      <trkpt lat="48.69531" lon="-0.59374">
        <ele>263.921855</ele>
        <time>2024-11-09T19:08:51.609Z</time>
      </trkpt>
      <trkpt lat="48.69515" lon="-0.59384">
        <ele>263.616491</ele>
        <time>2024-11-09T19:08:56.261Z</time>
      </trkpt>
      <trkpt lat="48.6951" lon="-0.59387">
        <ele>263.525052</ele>
        <time>2024-11-09T19:08:57.657Z</time>
      </trkpt>
      <trkpt lat="48.69495" lon="-0.5939">
        <ele>263.256412</ele>
        <time>2024-11-09T19:09:01.699Z</time>
      </trkpt>
      <trkpt lat="48.69476" lon="-0.59385">
        <ele>262.810948</ele>
        <time>2024-11-09T19:09:06.887Z</time>
      </trkpt>
      <trkpt lat="48.69476" lon="-0.59385">
        <ele>262.794513</ele>
        <time>2024-11-09T19:09:07.080Z</time>
      </trkpt>
      <trkpt lat="48.69448" lon="-0.59414">
        <ele>262.004145</ele>
        <time>2024-11-09T19:09:16.361Z</time>
      </trkpt>
      <trkpt lat="48.694" lon="-0.59452">
        <ele>260.763552</ele>
        <time>2024-11-09T19:09:31.029Z</time>
      </trkpt>
      <trkpt lat="48.69396" lon="-0.59458">
        <ele>260.628254</ele>
        <time>2024-11-09T19:09:32.644Z</time>
      </trkpt>
      <trkpt lat="48.69361" lon="-0.59509">
        <ele>259.519759</ele>
        <time>2024-11-09T19:09:45.819Z</time>
      </trkpt>
      <trkpt lat="48.69267" lon="-0.59577">
        <ele>255.608926</ele>
        <time>2024-11-09T19:10:12.931Z</time>
      </trkpt>
      <trkpt lat="48.69166" lon="-0.59256">
        <ele>245.698691</ele>
        <time>2024-11-09T19:10:44.158Z</time>
      </trkpt>
      <trkpt lat="48.68987" lon="-0.58693">
        <ele>236.305132</ele>
        <time>2024-11-09T19:11:47.841Z</time>
      </trkpt>
      <trkpt lat="48.68972" lon="-0.58642">
        <ele>235.664217</ele>
        <time>2024-11-09T19:11:53.680Z</time>
      </trkpt>
      <trkpt lat="48.68795" lon="-0.58711">
        <ele>231.869904</ele>
        <time>2024-11-09T19:12:24.511Z</time>
      </trkpt>
      <trkpt lat="48.68692" lon="-0.5875">
        <ele>228.820865</ele>
        <time>2024-11-09T19:12:40.488Z</time>
      </trkpt>
      <trkpt lat="48.68691" lon="-0.5875">
        <ele>228.794372</ele>
        <time>2024-11-09T19:12:40.631Z</time>
      </trkpt>
      <trkpt lat="48.68567" lon="-0.58787">
        <ele>225.046987</ele>
        <time>2024-11-09T19:12:59.968Z</time>
      </trkpt>
      <trkpt lat="48.68561" lon="-0.58798">
        <ele>224.772528</ele>
        <time>2024-11-09T19:13:01.441Z</time>
      </trkpt>
      <trkpt lat="48.68534" lon="-0.59008">
        <ele>222.755093</ele>
        <time>2024-11-09T19:13:23.840Z</time>
      </trkpt>
      <trkpt lat="48.68527" lon="-0.59035">
        <ele>222.717781</ele>
        <time>2024-11-09T19:13:29.397Z</time>
      </trkpt>
      <trkpt lat="48.68497" lon="-0.59042">
        <ele>222.659648</ele>
        <time>2024-11-09T19:13:39.073Z</time>
      </trkpt>
      <trkpt lat="48.68511" lon="-0.59131">
        <ele>222.945799</ele>
        <time>2024-11-09T19:14:06.541Z</time>
      </trkpt>
      <trkpt lat="48.68512" lon="-0.59148">
        <ele>223.469716</ele>
        <time>2024-11-09T19:14:12.287Z</time>
      </trkpt>
      <trkpt lat="48.68513" lon="-0.59174">
        <ele>224.297363</ele>
        <time>2024-11-09T19:14:21.231Z</time>
      </trkpt>
      <trkpt lat="48.68532" lon="-0.5924">
        <ele>226.56068</ele>
        <time>2024-11-09T19:14:47.660Z</time>
      </trkpt>
      <trkpt lat="48.68534" lon="-0.59262">
        <ele>227.249234</ele>
        <time>2024-11-09T19:14:56.300Z</time>
      </trkpt>
      <trkpt lat="48.68539" lon="-0.59274">
        <ele>227.685064</ele>
        <time>2024-11-09T19:15:01.978Z</time>
      </trkpt>
      <trkpt lat="48.68547" lon="-0.59284">
        <ele>228.216864</ele>
        <time>2024-11-09T19:15:08.943Z</time>
      </trkpt>
      <trkpt lat="48.68546" lon="-0.59237">
        <ele>229.716067</ele>
        <time>2024-11-09T19:15:29.043Z</time>
      </trkpt>
      <trkpt lat="48.68552" lon="-0.59218">
        <ele>230.372162</ele>
        <time>2024-11-09T19:15:37.707Z</time>
      </trkpt>
      <trkpt lat="48.68565" lon="-0.59212">
        <ele>231.009826</ele>
        <time>2024-11-09T19:15:45.693Z</time>
      </trkpt>
      <trkpt lat="48.68575" lon="-0.59329">
        <ele>234.270844</ele>
        <time>2024-11-09T19:16:26.899Z</time>
      </trkpt>
      <trkpt lat="48.6855" lon="-0.59392">
        <ele>236.314665</ele>
        <time>2024-11-09T19:16:53.586Z</time>
      </trkpt>
      <trkpt lat="48.68518" lon="-0.59524">
        <ele>240.225372</ele>
        <time>2024-11-09T19:17:37.213Z</time>
      </trkpt>
      <trkpt lat="48.68509" lon="-0.59589">
        <ele>242.085445</ele>
        <time>2024-11-09T19:17:58.265Z</time>
      </trkpt>
      <trkpt lat="48.68502" lon="-0.59668">
        <ele>244.33118</ele>
        <time>2024-11-09T19:18:26.529Z</time>
      </trkpt>
      <trkpt lat="48.68509" lon="-0.59735">
        <ele>246.265761</ele>
        <time>2024-11-09T19:18:53.559Z</time>
      </trkpt>
      <trkpt lat="48.68534" lon="-0.59778">
        <ele>247.601463</ele>
        <time>2024-11-09T19:19:16.836Z</time>
      </trkpt>
      <trkpt lat="48.68535" lon="-0.59779">
        <ele>247.658561</ele>
        <time>2024-11-09T19:19:17.847Z</time>
      </trkpt>
      <trkpt lat="48.68575" lon="-0.59824">
        <ele>249.456463</ele>
        <time>2024-11-09T19:19:47.345Z</time>
      </trkpt>
      <trkpt lat="48.68608" lon="-0.59831">
        <ele>250.638638</ele>
        <time>2024-11-09T19:20:04.232Z</time>
      </trkpt>
      <trkpt lat="48.68611" lon="-0.59843">
        <ele>250.933056</ele>
        <time>2024-11-09T19:20:08.036Z</time>
      </trkpt>
      <trkpt lat="48.6862" lon="-0.5984">
        <ele>251.252986</ele>
        <time>2024-11-09T19:20:12.044Z</time>
      </trkpt>
      <trkpt lat="48.68622" lon="-0.59843">
        <ele>251.371468</ele>
        <time>2024-11-09T19:20:13.455Z</time>
      </trkpt>
      <trkpt lat="48.68628" lon="-0.59879">
        <ele>252.250125</ele>
        <time>2024-11-09T19:20:23.308Z</time>
      </trkpt>
      <trkpt lat="48.68601" lon="-0.59988">
        <ele>252.19238</ele>
        <time>2024-11-09T19:20:45.990Z</time>
      </trkpt>
      <trkpt lat="48.68571" lon="-0.60083">
        <ele>251.541881</ele>
        <time>2024-11-09T19:21:04.653Z</time>
      </trkpt>
      <trkpt lat="48.68571" lon="-0.60146">
        <ele>251.15354</ele>
        <time>2024-11-09T19:21:16.334Z</time>
      </trkpt>
      <trkpt lat="48.68778" lon="-0.60634">
        <ele>255.60064</ele>
        <time>2024-11-09T19:23:42.744Z</time>
      </trkpt>
      <trkpt lat="48.68829" lon="-0.60733">
        <ele>257.327911</ele>
        <time>2024-11-09T19:24:18.940Z</time>
      </trkpt>
      <trkpt lat="48.68898" lon="-0.60806">
        <ele>259.097597</ele>
        <time>2024-11-09T19:24:54.314Z</time>
      </trkpt>
      <trkpt lat="48.68919" lon="-0.60833">
        <ele>259.905873</ele>
        <time>2024-11-09T19:25:05.794Z</time>
      </trkpt>
      <trkpt lat="48.68919" lon="-0.60835">
        <ele>259.941782</ele>
        <time>2024-11-09T19:25:06.296Z</time>
      </trkpt>
      <trkpt lat="48.68927" lon="-0.60865">
        <ele>260.575731</ele>
        <time>2024-11-09T19:25:15.402Z</time>
      </trkpt>
      <trkpt lat="48.68929" lon="-0.60904">
        <ele>261.323539</ele>
        <time>2024-11-09T19:25:26.915Z</time>
      </trkpt>
      <trkpt lat="48.68928" lon="-0.6091">
        <ele>261.446682</ele>
        <time>2024-11-09T19:25:28.830Z</time>
      </trkpt>
      <trkpt lat="48.68914" lon="-0.60924">
        <ele>261.926189</ele>
        <time>2024-11-09T19:25:36.508Z</time>
      </trkpt>
      <trkpt lat="48.68859" lon="-0.60958">
        <ele>263.665643</ele>
        <time>2024-11-09T19:26:05.635Z</time>
      </trkpt>
      <trkpt lat="48.68832" lon="-0.6099">
        <ele>264.565435</ele>
        <time>2024-11-09T19:26:23.839Z</time>
      </trkpt>
      <trkpt lat="48.68752" lon="-0.61086">
        <ele>266.782824</ele>
        <time>2024-11-09T19:27:15.388Z</time>
      </trkpt>
      <trkpt lat="48.68782" lon="-0.61157">
        <ele>268.005663</ele>
        <time>2024-11-09T19:27:34.903Z</time>
      </trkpt>
      <trkpt lat="48.68777" lon="-0.6119">
        <ele>267.494124</ele>
        <time>2024-11-09T19:27:41.072Z</time>
      </trkpt>
      <trkpt lat="48.68772" lon="-0.61224">
        <ele>266.431566</ele>
        <time>2024-11-09T19:27:47.117Z</time>
      </trkpt>
      <trkpt lat="48.68752" lon="-0.61258">
        <ele>265.015038</ele>
        <time>2024-11-09T19:27:54.932Z</time>
      </trkpt>
      <trkpt lat="48.68746" lon="-0.61268">
        <ele>264.598161</ele>
        <time>2024-11-09T19:27:57.141Z</time>
      </trkpt>
      <trkpt lat="48.68706" lon="-0.61306">
        <ele>262.368661</ele>
        <time>2024-11-09T19:28:08.398Z</time>
      </trkpt>
      <trkpt lat="48.68675" lon="-0.61281">
        <ele>260.723374</ele>
        <time>2024-11-09T19:28:16.399Z</time>
      </trkpt>
      <trkpt lat="48.68623" lon="-0.61258">
        <ele>257.33282</ele>
        <time>2024-11-09T19:28:28.481Z</time>
      </trkpt>
      <trkpt lat="48.68601" lon="-0.61253">
        <ele>255.734753</ele>
        <time>2024-11-09T19:28:33.475Z</time>
      </trkpt>
      <trkpt lat="48.68571" lon="-0.61265">
        <ele>253.542122</ele>
        <time>2024-11-09T19:28:40.299Z</time>
      </trkpt>
      <trkpt lat="48.68539" lon="-0.61269">
        <ele>251.19423</ele>
        <time>2024-11-09T19:28:47.532Z</time>
      </trkpt>
      <trkpt lat="48.68504" lon="-0.61254">
        <ele>248.597923</ele>
        <time>2024-11-09T19:28:55.681Z</time>
      </trkpt>
      <trkpt lat="48.68443" lon="-0.61242">
        <ele>244.896069</ele>
        <time>2024-11-09T19:29:10.071Z</time>
      </trkpt>
      <trkpt lat="48.68421" lon="-0.61247">
        <ele>243.717053</ele>
        <time>2024-11-09T19:29:15.518Z</time>
      </trkpt>
      <trkpt lat="48.68411" lon="-0.61256">
        <ele>243.148461</ele>
        <time>2024-11-09T19:29:18.168Z</time>
      </trkpt>
      <trkpt lat="48.68401" lon="-0.61252">
        <ele>242.612772</ele>
        <time>2024-11-09T19:29:19.645Z</time>
      </trkpt>
      <trkpt lat="48.68269" lon="-0.61246">
        <ele>236.090041</ele>
        <time>2024-11-09T19:29:38.651Z</time>
      </trkpt>
      <trkpt lat="48.68126" lon="-0.61235">
        <ele>229.989759</ele>
        <time>2024-11-09T19:29:59.587Z</time>
      </trkpt>
      <trkpt lat="48.68115" lon="-0.61266">
        <ele>229.086308</ele>
        <time>2024-11-09T19:30:03.053Z</time>
      </trkpt>
      <trkpt lat="48.68076" lon="-0.6133">
        <ele>226.905314</ele>
        <time>2024-11-09T19:30:11.652Z</time>
      </trkpt>
      <trkpt lat="48.68066" lon="-0.61354">
        <ele>226.183962</ele>
        <time>2024-11-09T19:30:14.532Z</time>
      </trkpt>
      <trkpt lat="48.6804" lon="-0.61358">
        <ele>225.229998</ele>
        <time>2024-11-09T19:30:20.965Z</time>
      </trkpt>
      <trkpt lat="48.67969" lon="-0.61406">
        <ele>222.243509</ele>
        <time>2024-11-09T19:30:40.525Z</time>
      </trkpt>
      <trkpt lat="48.67953" lon="-0.61412">
        <ele>221.566654</ele>
        <time>2024-11-09T19:30:44.799Z</time>
      </trkpt>
      <trkpt lat="48.67888" lon="-0.61432">
        <ele>218.95315</ele>
        <time>2024-11-09T19:31:01.227Z</time>
      </trkpt>
      <trkpt lat="48.67833" lon="-0.61444">
        <ele>216.732865</ele>
        <time>2024-11-09T19:31:15.058Z</time>
      </trkpt>
      <trkpt lat="48.67817" lon="-0.61447">
        <ele>216.097478</ele>
        <time>2024-11-09T19:31:18.992Z</time>
      </trkpt>
      <trkpt lat="48.67732" lon="-0.61455">
        <ele>213.074472</ele>
        <time>2024-11-09T19:31:40.310Z</time>
      </trkpt>
      <trkpt lat="48.67701" lon="-0.61456">
        <ele>211.98061</ele>
        <time>2024-11-09T19:31:48.220Z</time>
      </trkpt>
      <trkpt lat="48.67654" lon="-0.61458">
        <ele>210.336314</ele>
        <time>2024-11-09T19:32:00.340Z</time>
      </trkpt>
      <trkpt lat="48.67569" lon="-0.61434">
        <ele>207.50039</ele>
        <time>2024-11-09T19:32:23.362Z</time>
      </trkpt>
      <trkpt lat="48.67568" lon="-0.61433">
        <ele>207.469517</ele>
        <time>2024-11-09T19:32:23.612Z</time>
      </trkpt>
      <trkpt lat="48.6754" lon="-0.61416">
        <ele>206.472496</ele>
        <time>2024-11-09T19:32:31.934Z</time>
      </trkpt>
      <trkpt lat="48.67485" lon="-0.61351">
        <ele>204.232081</ele>
        <time>2024-11-09T19:32:49.735Z</time>
      </trkpt>
      <trkpt lat="48.67474" lon="-0.61344">
        <ele>203.864689</ele>
        <time>2024-11-09T19:32:52.538Z</time>
      </trkpt>
      <trkpt lat="48.67474" lon="-0.61344">
        <ele>203.864689</ele>
        <time>2024-11-09T19:32:52.542Z</time>
      </trkpt>
      <trkpt lat="48.6747" lon="-0.61345">
        <ele>203.690741</ele>
        <time>2024-11-09T19:32:53.633Z</time>
      </trkpt>
      <trkpt lat="48.67474" lon="-0.61344">
        <ele>203.469789</ele>
        <time>2024-11-09T19:32:54.747Z</time>
      </trkpt>
      <trkpt lat="48.67474" lon="-0.61344">
        <ele>203.469789</ele>
        <time>2024-11-09T19:32:54.751Z</time>
      </trkpt>
      <trkpt lat="48.67474" lon="-0.61344">
        <ele>203.469789</ele>
        <time>2024-11-09T19:32:54.756Z</time>
      </trkpt>
      <trkpt lat="48.6747" lon="-0.61345">
        <ele>203.248838</ele>
        <time>2024-11-09T19:32:55.838Z</time>
      </trkpt>
      <trkpt lat="48.67433" lon="-0.61357">
        <ele>201.371414</ele>
        <time>2024-11-09T19:33:04.947Z</time>
      </trkpt>
      <trkpt lat="48.67391" lon="-0.61397">
        <ele>198.966752</ele>
        <time>2024-11-09T19:33:16.387Z</time>
      </trkpt>
      <trkpt lat="48.67357" lon="-0.61417">
        <ele>197.151327</ele>
        <time>2024-11-09T19:33:24.995Z</time>
      </trkpt>
      <trkpt lat="48.67345" lon="-0.61423">
        <ele>196.520954</ele>
        <time>2024-11-09T19:33:28.018Z</time>
      </trkpt>
      <trkpt lat="48.67339" lon="-0.61406">
        <ele>195.910898</ele>
        <time>2024-11-09T19:33:29.675Z</time>
      </trkpt>
      <trkpt lat="48.67307" lon="-0.61466">
        <ele>194.992847</ele>
        <time>2024-11-09T19:33:36.847Z</time>
      </trkpt>
      <trkpt lat="48.673" lon="-0.61478">
        <ele>195.012482</ele>
        <time>2024-11-09T19:33:38.535Z</time>
      </trkpt>
      <trkpt lat="48.67246" lon="-0.61565">
        <ele>195.154041</ele>
        <time>2024-11-09T19:33:54.953Z</time>
      </trkpt>
      <trkpt lat="48.67219" lon="-0.61586">
        <ele>195.209328</ele>
        <time>2024-11-09T19:34:04.742Z</time>
      </trkpt>
      <trkpt lat="48.6719" lon="-0.61599">
        <ele>195.297647</ele>
        <time>2024-11-09T19:34:15.440Z</time>
      </trkpt>
      <trkpt lat="48.67153" lon="-0.61611">
        <ele>196.881213</ele>
        <time>2024-11-09T19:34:29.979Z</time>
      </trkpt>
      <trkpt lat="48.67135" lon="-0.6162">
        <ele>197.641258</ele>
        <time>2024-11-09T19:34:37.326Z</time>
      </trkpt>
      <trkpt lat="48.67079" lon="-0.61682">
        <ele>200.47636</ele>
        <time>2024-11-09T19:35:04.250Z</time>
      </trkpt>
      <trkpt lat="48.67065" lon="-0.61685">
        <ele>201.062283</ele>
        <time>2024-11-09T19:35:09.983Z</time>
      </trkpt>
      <trkpt lat="48.67047" lon="-0.61681">
        <ele>201.805152</ele>
        <time>2024-11-09T19:35:17.527Z</time>
      </trkpt>
      <trkpt lat="48.67019" lon="-0.61667">
        <ele>203.246903</ele>
        <time>2024-11-09T19:35:30.639Z</time>
      </trkpt>
      <trkpt lat="48.66992" lon="-0.61651">
        <ele>205.029015</ele>
        <time>2024-11-09T19:35:43.882Z</time>
      </trkpt>
      <trkpt lat="48.66923" lon="-0.61638">
        <ele>209.409086</ele>
        <time>2024-11-09T19:36:19.942Z</time>
      </trkpt>
      <trkpt lat="48.66823" lon="-0.61644">
        <ele>215.26637</ele>
        <time>2024-11-09T19:37:14.617Z</time>
      </trkpt>
      <trkpt lat="48.6677" lon="-0.61667">
        <ele>217.908625</ele>
        <time>2024-11-09T19:37:42.460Z</time>
      </trkpt>
      <trkpt lat="48.66757" lon="-0.61668">
        <ele>218.521736</ele>
        <time>2024-11-09T19:37:48.534Z</time>
      </trkpt>
      <trkpt lat="48.66716" lon="-0.61666">
        <ele>220.489611</ele>
        <time>2024-11-09T19:38:05.638Z</time>
      </trkpt>
      <trkpt lat="48.66648" lon="-0.61672">
        <ele>222.401743</ele>
        <time>2024-11-09T19:38:25.855Z</time>
      </trkpt>
      <trkpt lat="48.66618" lon="-0.6167">
        <ele>222.293872</ele>
        <time>2024-11-09T19:38:31.599Z</time>
      </trkpt>
      <trkpt lat="48.66572" lon="-0.61671">
        <ele>222.129808</ele>
        <time>2024-11-09T19:38:39.095Z</time>
      </trkpt>
      <trkpt lat="48.66529" lon="-0.61676">
        <ele>221.976027</ele>
        <time>2024-11-09T19:38:45.733Z</time>
      </trkpt>
      <trkpt lat="48.6647" lon="-0.61683">
        <ele>221.941522</ele>
        <time>2024-11-09T19:38:55.553Z</time>
      </trkpt>
      <trkpt lat="48.66417" lon="-0.61673">
        <ele>222.146826</ele>
        <time>2024-11-09T19:39:06.834Z</time>
      </trkpt>
      <trkpt lat="48.66404" lon="-0.61675">
        <ele>222.197646</ele>
        <time>2024-11-09T19:39:10.235Z</time>
      </trkpt>
      <trkpt lat="48.66355" lon="-0.61696">
        <ele>222.392551</ele>
        <time>2024-11-09T19:39:24.188Z</time>
      </trkpt>
      <trkpt lat="48.66284" lon="-0.61713">
        <ele>222.039085</ele>
        <time>2024-11-09T19:39:41.307Z</time>
      </trkpt>
      <trkpt lat="48.66067" lon="-0.61749">
        <ele>217.313119</ele>
        <time>2024-11-09T19:40:14.474Z</time>
      </trkpt>
      <trkpt lat="48.66065" lon="-0.61727">
        <ele>216.790574</ele>
        <time>2024-11-09T19:40:18.307Z</time>
      </trkpt>
      <trkpt lat="48.66018" lon="-0.61523">
        <ele>211.154592</ele>
        <time>2024-11-09T19:40:53.355Z</time>
      </trkpt>
      <trkpt lat="48.66016" lon="-0.61501">
        <ele>210.470573</ele>
        <time>2024-11-09T19:40:56.711Z</time>
      </trkpt>
      <trkpt lat="48.6599" lon="-0.6141">
        <ele>207.319428</ele>
        <time>2024-11-09T19:41:12.072Z</time>
      </trkpt>
      <trkpt lat="48.65983" lon="-0.61394">
        <ele>206.712537</ele>
        <time>2024-11-09T19:41:15.100Z</time>
      </trkpt>
      <trkpt lat="48.65926" lon="-0.61342">
        <ele>205.219172</ele>
        <time>2024-11-09T19:41:31.659Z</time>
      </trkpt>
      <trkpt lat="48.65887" lon="-0.61254">
        <ele>205.922519</ele>
        <time>2024-11-09T19:41:53.565Z</time>
      </trkpt>
      <trkpt lat="48.65865" lon="-0.61242">
        <ele>206.16381</ele>
        <time>2024-11-09T19:42:04.160Z</time>
      </trkpt>
      <trkpt lat="48.65812" lon="-0.61199">
        <ele>206.933464</ele>
        <time>2024-11-09T19:42:36.652Z</time>
      </trkpt>
      <trkpt lat="48.65802" lon="-0.6118">
        <ele>208.035204</ele>
        <time>2024-11-09T19:42:46.357Z</time>
      </trkpt>
      <trkpt lat="48.65781" lon="-0.61116">
        <ele>211.29904</ele>
        <time>2024-11-09T19:43:17.273Z</time>
      </trkpt>
      <trkpt lat="48.65754" lon="-0.61023">
        <ele>215.886407</ele>
        <time>2024-11-09T19:44:03.286Z</time>
      </trkpt>
      <trkpt lat="48.65727" lon="-0.60953">
        <ele>219.563127</ele>
        <time>2024-11-09T19:44:41.793Z</time>
      </trkpt>
      <trkpt lat="48.65677" lon="-0.60847">
        <ele>225.239969</ele>
        <time>2024-11-09T19:45:42.359Z</time>
      </trkpt>
      <trkpt lat="48.65664" lon="-0.60791">
        <ele>227.767934</ele>
        <time>2024-11-09T19:46:07.088Z</time>
      </trkpt>
      <trkpt lat="48.65607" lon="-0.60818">
        <ele>231.168596</ele>
        <time>2024-11-09T19:46:34.296Z</time>
      </trkpt>
      <trkpt lat="48.65568" lon="-0.60841">
        <ele>232.048882</ele>
        <time>2024-11-09T19:46:49.688Z</time>
      </trkpt>
      <trkpt lat="48.65552" lon="-0.60853">
        <ele>232.438538</ele>
        <time>2024-11-09T19:46:55.658Z</time>
      </trkpt>
      <trkpt lat="48.65533" lon="-0.60867">
        <ele>232.893385</ele>
        <time>2024-11-09T19:47:02.224Z</time>
      </trkpt>
      <trkpt lat="48.6548" lon="-0.60913">
        <ele>234.181638</ele>
        <time>2024-11-09T19:47:17.789Z</time>
      </trkpt>
      <trkpt lat="48.65472" lon="-0.60922">
        <ele>234.394357</ele>
        <time>2024-11-09T19:47:19.786Z</time>
      </trkpt>
      <trkpt lat="48.6548" lon="-0.60913">
        <ele>234.607075</ele>
        <time>2024-11-09T19:47:21.716Z</time>
      </trkpt>
      <trkpt lat="48.6546" lon="-0.60841">
        <ele>233.328649</ele>
        <time>2024-11-09T19:47:30.997Z</time>
      </trkpt>
      <trkpt lat="48.65448" lon="-0.60786">
        <ele>232.179996</ele>
        <time>2024-11-09T19:47:37.181Z</time>
      </trkpt>
      <trkpt lat="48.65444" lon="-0.60654">
        <ele>229.544335</ele>
        <time>2024-11-09T19:47:49.997Z</time>
      </trkpt>
      <trkpt lat="48.65435" lon="-0.60537">
        <ele>224.457053</ele>
        <time>2024-11-09T19:48:00.637Z</time>
      </trkpt>
      <trkpt lat="48.65412" lon="-0.60412">
        <ele>218.506208</ele>
        <time>2024-11-09T19:48:11.952Z</time>
      </trkpt>
      <trkpt lat="48.6541" lon="-0.60387">
        <ele>217.339244</ele>
        <time>2024-11-09T19:48:14.152Z</time>
      </trkpt>
      <trkpt lat="48.65418" lon="-0.60124">
        <ele>204.697203</ele>
        <time>2024-11-09T19:48:37.036Z</time>
      </trkpt>
      <trkpt lat="48.65429" lon="-0.60044">
        <ele>202.533283</ele>
        <time>2024-11-09T19:48:44.779Z</time>
      </trkpt>
      <trkpt lat="48.65464" lon="-0.59881">
        <ele>199.289172</ele>
        <time>2024-11-09T19:49:02.795Z</time>
      </trkpt>
      <trkpt lat="48.65468" lon="-0.59864">
        <ele>198.940707</ele>
        <time>2024-11-09T19:49:04.915Z</time>
      </trkpt>
      <trkpt lat="48.65458" lon="-0.59844">
        <ele>198.578528</ele>
        <time>2024-11-09T19:49:08.724Z</time>
      </trkpt>
      <trkpt lat="48.6543" lon="-0.59832">
        <ele>199.414775</ele>
        <time>2024-11-09T19:49:17.981Z</time>
      </trkpt>
      <trkpt lat="48.65396" lon="-0.59811">
        <ele>200.464192</ele>
        <time>2024-11-09T19:49:31.563Z</time>
      </trkpt>
      <trkpt lat="48.6538" lon="-0.59808">
        <ele>200.920402</ele>
        <time>2024-11-09T19:49:38.220Z</time>
      </trkpt>
      <trkpt lat="48.65358" lon="-0.59811">
        <ele>201.527893</ele>
        <time>2024-11-09T19:49:47.731Z</time>
      </trkpt>
      <trkpt lat="48.6535" lon="-0.59815">
        <ele>201.779775</ele>
        <time>2024-11-09T19:49:51.895Z</time>
      </trkpt>
      <trkpt lat="48.65333" lon="-0.59839">
        <ele>202.447401</ele>
        <time>2024-11-09T19:50:04.217Z</time>
      </trkpt>
      <trkpt lat="48.65304" lon="-0.59929">
        <ele>205.5375</ele>
        <time>2024-11-09T19:50:46.942Z</time>
      </trkpt>
      <trkpt lat="48.65265" lon="-0.60008">
        <ele>210.651266</ele>
        <time>2024-11-09T19:51:34.845Z</time>
      </trkpt>
      <trkpt lat="48.65227" lon="-0.60057">
        <ele>214.623634</ele>
        <time>2024-11-09T19:52:13.403Z</time>
      </trkpt>
      <trkpt lat="48.6515" lon="-0.60125">
        <ele>219.882692</ele>
        <time>2024-11-09T19:53:17.514Z</time>
      </trkpt>
      <trkpt lat="48.65118" lon="-0.6016">
        <ele>221.51326</ele>
        <time>2024-11-09T19:53:40.352Z</time>
      </trkpt>
      <trkpt lat="48.65089" lon="-0.60188">
        <ele>222.962609</ele>
        <time>2024-11-09T19:53:57.816Z</time>
      </trkpt>
      <trkpt lat="48.65047" lon="-0.60219">
        <ele>224.893672</ele>
        <time>2024-11-09T19:54:16.098Z</time>
      </trkpt>
      <trkpt lat="48.65038" lon="-0.60136">
        <ele>224.495166</ele>
        <time>2024-11-09T19:54:25.927Z</time>
      </trkpt>
      <trkpt lat="48.64978" lon="-0.59765">
        <ele>217.677147</ele>
        <time>2024-11-09T19:55:03.035Z</time>
      </trkpt>
      <trkpt lat="48.64923" lon="-0.59433">
        <ele>207.053429</ele>
        <time>2024-11-09T19:55:33.148Z</time>
      </trkpt>
      <trkpt lat="48.64847" lon="-0.58967">
        <ele>192.059322</ele>
        <time>2024-11-09T19:56:15.424Z</time>
      </trkpt>
      <trkpt lat="48.6484" lon="-0.58914">
        <ele>190.517032</ele>
        <time>2024-11-09T19:56:20.409Z</time>
      </trkpt>
      <trkpt lat="48.64835" lon="-0.58833">
        <ele>189.171084</ele>
        <time>2024-11-09T19:56:28.279Z</time>
      </trkpt>
      <trkpt lat="48.64835" lon="-0.58755">
        <ele>188.622285</ele>
        <time>2024-11-09T19:56:36.344Z</time>
      </trkpt>
      <trkpt lat="48.64837" lon="-0.5872">
        <ele>188.372134</ele>
        <time>2024-11-09T19:56:40.364Z</time>
      </trkpt>
      <trkpt lat="48.64848" lon="-0.58622">
        <ele>187.666661</ele>
        <time>2024-11-09T19:56:53.480Z</time>
      </trkpt>
      <trkpt lat="48.64856" lon="-0.5858">
        <ele>187.582395</ele>
        <time>2024-11-09T19:57:00.245Z</time>
      </trkpt>
      <trkpt lat="48.64884" lon="-0.58481">
        <ele>187.616533</ele>
        <time>2024-11-09T19:57:17.864Z</time>
      </trkpt>
      <trkpt lat="48.64908" lon="-0.58414">
        <ele>187.640704</ele>
        <time>2024-11-09T19:57:29.107Z</time>
      </trkpt>
      <trkpt lat="48.64936" lon="-0.58356">
        <ele>187.355189</ele>
        <time>2024-11-09T19:57:36.968Z</time>
      </trkpt>
      <trkpt lat="48.64956" lon="-0.5829">
        <ele>185.743737</ele>
        <time>2024-11-09T19:57:43.721Z</time>
      </trkpt>
      <trkpt lat="48.64962" lon="-0.58251">
        <ele>184.830244</ele>
        <time>2024-11-09T19:57:47.385Z</time>
      </trkpt>
      <trkpt lat="48.64965" lon="-0.58203">
        <ele>183.76455</ele>
        <time>2024-11-09T19:57:51.631Z</time>
      </trkpt>
      <trkpt lat="48.64952" lon="-0.58137">
        <ele>182.207218</ele>
        <time>2024-11-09T19:57:57.865Z</time>
      </trkpt>
      <trkpt lat="48.6495" lon="-0.58114">
        <ele>181.687845</ele>
        <time>2024-11-09T19:57:59.958Z</time>
      </trkpt>
      <trkpt lat="48.64952" lon="-0.58098">
        <ele>181.437371</ele>
        <time>2024-11-09T19:58:01.422Z</time>
      </trkpt>
      <trkpt lat="48.64654" lon="-0.57995">
        <ele>176.437099</ele>
        <time>2024-11-09T19:58:57.849Z</time>
      </trkpt>
      <trkpt lat="48.64561" lon="-0.57989">
        <ele>175.413497</ele>
        <time>2024-11-09T19:59:14.529Z</time>
      </trkpt>
      <trkpt lat="48.64477" lon="-0.58022">
        <ele>174.725796</ele>
        <time>2024-11-09T19:59:31.389Z</time>
      </trkpt>
      <trkpt lat="48.64469" lon="-0.58028">
        <ele>174.660339</ele>
        <time>2024-11-09T19:59:33.156Z</time>
      </trkpt>
      <trkpt lat="48.64423" lon="-0.58066">
        <ele>174.383651</ele>
        <time>2024-11-09T19:59:44.818Z</time>
      </trkpt>
      <trkpt lat="48.64409" lon="-0.58025">
        <ele>174.440903</ele>
        <time>2024-11-09T19:59:54.811Z</time>
      </trkpt>
      <trkpt lat="48.64396" lon="-0.58049">
        <ele>174.480191</ele>
        <time>2024-11-09T20:00:01.588Z</time>
      </trkpt>
      <trkpt lat="48.64409" lon="-0.58025">
        <ele>174.51948</ele>
        <time>2024-11-09T20:00:08.306Z</time>
      </trkpt>
      <trkpt lat="48.64466" lon="-0.57906">
        <ele>174.725131</ele>
        <time>2024-11-09T20:00:40.068Z</time>
      </trkpt>
      <trkpt lat="48.64486" lon="-0.578">
        <ele>175.320735</ele>
        <time>2024-11-09T20:01:06.029Z</time>
      </trkpt>
      <trkpt lat="48.64488" lon="-0.57709">
        <ele>175.810939</ele>
        <time>2024-11-09T20:01:28.060Z</time>
      </trkpt>
      <trkpt lat="48.64488" lon="-0.577">
        <ele>175.863372</ele>
        <time>2024-11-09T20:01:30.498Z</time>
      </trkpt>
      <trkpt lat="48.64488" lon="-0.577">
        <ele>175.863372</ele>
        <time>2024-11-09T20:01:30.510Z</time>
      </trkpt>
      <trkpt lat="48.64495" lon="-0.57699">
        <ele>175.92146</ele>
        <time>2024-11-09T20:01:33.547Z</time>
      </trkpt>
      <trkpt lat="48.64467" lon="-0.57616">
        <ele>176.49957</ele>
        <time>2024-11-09T20:02:00.072Z</time>
      </trkpt>
      <trkpt lat="48.64439" lon="-0.57532">
        <ele>177.141583</ele>
        <time>2024-11-09T20:02:26.591Z</time>
      </trkpt>
      <trkpt lat="48.64398" lon="-0.57421">
        <ele>178.015062</ele>
        <time>2024-11-09T20:03:02.672Z</time>
      </trkpt>
      <trkpt lat="48.64406" lon="-0.57341">
        <ele>178.644567</ele>
        <time>2024-11-09T20:03:25.361Z</time>
      </trkpt>
      <trkpt lat="48.64414" lon="-0.57262">
        <ele>179.275696</ele>
        <time>2024-11-09T20:03:48.057Z</time>
      </trkpt>
      <trkpt lat="48.6444" lon="-0.57177">
        <ele>180.008535</ele>
        <time>2024-11-09T20:04:14.410Z</time>
      </trkpt>
      <trkpt lat="48.64465" lon="-0.57092">
        <ele>180.860401</ele>
        <time>2024-11-09T20:04:40.781Z</time>
      </trkpt>
      <trkpt lat="48.64469" lon="-0.57092">
        <ele>180.912035</ele>
        <time>2024-11-09T20:04:42.316Z</time>
      </trkpt>
      <trkpt lat="48.64472" lon="-0.56973">
        <ele>182.044656</ele>
        <time>2024-11-09T20:05:12.707Z</time>
      </trkpt>
      <trkpt lat="48.645" lon="-0.5682">
        <ele>183.481753</ele>
        <time>2024-11-09T20:05:54.858Z</time>
      </trkpt>
      <trkpt lat="48.64556" lon="-0.56666">
        <ele>185.013876</ele>
        <time>2024-11-09T20:06:39.546Z</time>
      </trkpt>
      <trkpt lat="48.64614" lon="-0.56539">
        <ele>185.713682</ele>
        <time>2024-11-09T20:07:13.949Z</time>
      </trkpt>
      <trkpt lat="48.64642" lon="-0.56476">
        <ele>186.022783</ele>
        <time>2024-11-09T20:07:24.119Z</time>
      </trkpt>
      <trkpt lat="48.64569" lon="-0.56516">
        <ele>187.216916</ele>
        <time>2024-11-09T20:07:53.100Z</time>
      </trkpt>
      <trkpt lat="48.64538" lon="-0.56522">
        <ele>187.966474</ele>
        <time>2024-11-09T20:08:06.236Z</time>
      </trkpt>
      <trkpt lat="48.64508" lon="-0.56498">
        <ele>188.74922</ele>
        <time>2024-11-09T20:08:20.618Z</time>
      </trkpt>
      <trkpt lat="48.64461" lon="-0.56448">
        <ele>190.10901</ele>
        <time>2024-11-09T20:08:47.932Z</time>
      </trkpt>
      <trkpt lat="48.64424" lon="-0.56431">
        <ele>191.436087</ele>
        <time>2024-11-09T20:09:07.284Z</time>
      </trkpt>
      <trkpt lat="48.64404" lon="-0.56428">
        <ele>192.242618</ele>
        <time>2024-11-09T20:09:17.609Z</time>
      </trkpt>
      <trkpt lat="48.64396" lon="-0.5642">
        <ele>192.651831</ele>
        <time>2024-11-09T20:09:23.100Z</time>
      </trkpt>
      <trkpt lat="48.64341" lon="-0.56408">
        <ele>194.961777</ele>
        <time>2024-11-09T20:09:54.913Z</time>
      </trkpt>
      <trkpt lat="48.64315" lon="-0.56403">
        <ele>196.030659</ele>
        <time>2024-11-09T20:10:06.329Z</time>
      </trkpt>
      <trkpt lat="48.64291" lon="-0.56388">
        <ele>197.137285</ele>
        <time>2024-11-09T20:10:17.724Z</time>
      </trkpt>
      <trkpt lat="48.64273" lon="-0.56367">
        <ele>198.006436</ele>
        <time>2024-11-09T20:10:26.816Z</time>
      </trkpt>
      <trkpt lat="48.64225" lon="-0.55879">
        <ele>203.607958</ele>
        <time>2024-11-09T20:12:03.535Z</time>
      </trkpt>
      <trkpt lat="48.64216" lon="-0.55738">
        <ele>202.810678</ele>
        <time>2024-11-09T20:12:19.447Z</time>
      </trkpt>
      <trkpt lat="48.64212" lon="-0.55609">
        <ele>201.256033</ele>
        <time>2024-11-09T20:12:33.124Z</time>
      </trkpt>
      <trkpt lat="48.6421" lon="-0.55484">
        <ele>199.861818</ele>
        <time>2024-11-09T20:12:46.707Z</time>
      </trkpt>
      <trkpt lat="48.64212" lon="-0.55316">
        <ele>198.091142</ele>
        <time>2024-11-09T20:13:05.005Z</time>
      </trkpt>
      <trkpt lat="48.64209" lon="-0.55289">
        <ele>197.808309</ele>
        <time>2024-11-09T20:13:08.315Z</time>
      </trkpt>
      <trkpt lat="48.6421" lon="-0.55264">
        <ele>198.328293</ele>
        <time>2024-11-09T20:13:11.524Z</time>
      </trkpt>
      <trkpt lat="48.64203" lon="-0.55232">
        <ele>199.047681</ele>
        <time>2024-11-09T20:13:17.021Z</time>
      </trkpt>
      <trkpt lat="48.64189" lon="-0.55212">
        <ele>199.648983</ele>
        <time>2024-11-09T20:13:22.554Z</time>
      </trkpt>
      <trkpt lat="48.64187" lon="-0.55203">
        <ele>199.861471</ele>
        <time>2024-11-09T20:13:24.685Z</time>
      </trkpt>
      <trkpt lat="48.64192" lon="-0.55162">
        <ele>200.729625</ele>
        <time>2024-11-09T20:13:34.827Z</time>
      </trkpt>
      <trkpt lat="48.64191" lon="-0.5515">
        <ele>200.968109</ele>
        <time>2024-11-09T20:13:38.052Z</time>
      </trkpt>
      <trkpt lat="48.64183" lon="-0.5513">
        <ele>201.473823</ele>
        <time>2024-11-09T20:13:45.421Z</time>
      </trkpt>
      <trkpt lat="48.64181" lon="-0.55119">
        <ele>201.692727</ele>
        <time>2024-11-09T20:13:49.555Z</time>
      </trkpt>
      <trkpt lat="48.64184" lon="-0.55109">
        <ele>201.927271</ele>
        <time>2024-11-09T20:13:54.058Z</time>
      </trkpt>
      <trkpt lat="48.64209" lon="-0.55052">
        <ele>203.359682</ele>
        <time>2024-11-09T20:14:21.514Z</time>
      </trkpt>
      <trkpt lat="48.64215" lon="-0.55018">
        <ele>203.934495</ele>
        <time>2024-11-09T20:14:35.665Z</time>
      </trkpt>
      <trkpt lat="48.64215" lon="-0.54972">
        <ele>204.604878</ele>
        <time>2024-11-09T20:14:52.832Z</time>
      </trkpt>
      <trkpt lat="48.64232" lon="-0.54926">
        <ele>205.380995</ele>
        <time>2024-11-09T20:15:10.257Z</time>
      </trkpt>
      <trkpt lat="48.6424" lon="-0.54892">
        <ele>205.922108</ele>
        <time>2024-11-09T20:15:20.542Z</time>
      </trkpt>
      <trkpt lat="48.64234" lon="-0.54799">
        <ele>207.295081</ele>
        <time>2024-11-09T20:15:39.626Z</time>
      </trkpt>
      <trkpt lat="48.64235" lon="-0.54693">
        <ele>207.007211</ele>
        <time>2024-11-09T20:15:59.532Z</time>
      </trkpt>
      <trkpt lat="48.64235" lon="-0.54627">
        <ele>206.621477</ele>
        <time>2024-11-09T20:16:06.618Z</time>
      </trkpt>
      <trkpt lat="48.64235" lon="-0.54444">
        <ele>206.38387</ele>
        <time>2024-11-09T20:16:27.950Z</time>
      </trkpt>
      <trkpt lat="48.64249" lon="-0.54391">
        <ele>206.760025</ele>
        <time>2024-11-09T20:16:38.564Z</time>
      </trkpt>
      <trkpt lat="48.64248" lon="-0.54382">
        <ele>206.819728</ele>
        <time>2024-11-09T20:16:39.980Z</time>
      </trkpt>
      <trkpt lat="48.64239" lon="-0.54374">
        <ele>206.918957</ele>
        <time>2024-11-09T20:16:43.002Z</time>
      </trkpt>
      <trkpt lat="48.64252" lon="-0.54341">
        <ele>207.179515</ele>
        <time>2024-11-09T20:16:49.292Z</time>
      </trkpt>
      <trkpt lat="48.64239" lon="-0.54374">
        <ele>207.440073</ele>
        <time>2024-11-09T20:16:55.312Z</time>
      </trkpt>
      <trkpt lat="48.64231" lon="-0.54366">
        <ele>207.533682</ele>
        <time>2024-11-09T20:16:57.786Z</time>
      </trkpt>
      <trkpt lat="48.64227" lon="-0.54355">
        <ele>207.620572</ele>
        <time>2024-11-09T20:16:59.636Z</time>
      </trkpt>
      <trkpt lat="48.64226" lon="-0.54309">
        <ele>208.594111</ele>
        <time>2024-11-09T20:17:08.359Z</time>
      </trkpt>
      <trkpt lat="48.64229" lon="-0.54275">
        <ele>209.642218</ele>
        <time>2024-11-09T20:17:16.138Z</time>
      </trkpt>
      <trkpt lat="48.64226" lon="-0.54197">
        <ele>212.036379</ele>
        <time>2024-11-09T20:17:36.752Z</time>
      </trkpt>
      <trkpt lat="48.64223" lon="-0.54176">
        <ele>212.691764</ele>
        <time>2024-11-09T20:17:42.239Z</time>
      </trkpt>
      <trkpt lat="48.64216" lon="-0.54157">
        <ele>213.359462</ele>
        <time>2024-11-09T20:17:50.051Z</time>
      </trkpt>
      <trkpt lat="48.64184" lon="-0.54117">
        <ele>215.261954</ele>
        <time>2024-11-09T20:18:15.353Z</time>
      </trkpt>
      <trkpt lat="48.6417" lon="-0.54077">
        <ele>216.878741</ele>
        <time>2024-11-09T20:18:37.192Z</time>
      </trkpt>
      <trkpt lat="48.64145" lon="-0.54005">
        <ele>220.197392</ele>
        <time>2024-11-09T20:19:18.986Z</time>
      </trkpt>
      <trkpt lat="48.64121" lon="-0.53922">
        <ele>223.926595</ele>
        <time>2024-11-09T20:20:00.045Z</time>
      </trkpt>
      <trkpt lat="48.64113" lon="-0.53878">
        <ele>225.79911</ele>
        <time>2024-11-09T20:20:17.838Z</time>
      </trkpt>
      <trkpt lat="48.64119" lon="-0.53836">
        <ele>227.215915</ele>
        <time>2024-11-09T20:20:32.212Z</time>
      </trkpt>
      <trkpt lat="48.64201" lon="-0.53482">
        <ele>224.700746</ele>
        <time>2024-11-09T20:21:44.596Z</time>
      </trkpt>
      <trkpt lat="48.64249" lon="-0.53272">
        <ele>219.394039</ele>
        <time>2024-11-09T20:22:21.056Z</time>
      </trkpt>
      <trkpt lat="48.64267" lon="-0.53197">
        <ele>216.558841</ele>
        <time>2024-11-09T20:22:33.515Z</time>
      </trkpt>
      <trkpt lat="48.64303" lon="-0.53278">
        <ele>213.067398</ele>
        <time>2024-11-09T20:22:42.407Z</time>
      </trkpt>
      <trkpt lat="48.64314" lon="-0.53308">
        <ele>211.836869</ele>
        <time>2024-11-09T20:22:45.526Z</time>
      </trkpt>
      <trkpt lat="48.64325" lon="-0.53328">
        <ele>210.944946</ele>
        <time>2024-11-09T20:22:47.863Z</time>
      </trkpt>
      <trkpt lat="48.6436" lon="-0.53347">
        <ele>209.048437</ele>
        <time>2024-11-09T20:22:52.823Z</time>
      </trkpt>
      <trkpt lat="48.64379" lon="-0.53346">
        <ele>208.042902</ele>
        <time>2024-11-09T20:22:55.492Z</time>
      </trkpt>
      <trkpt lat="48.64422" lon="-0.53326">
        <ele>205.66956</ele>
        <time>2024-11-09T20:23:01.878Z</time>
      </trkpt>
      <trkpt lat="48.64464" lon="-0.53295">
        <ele>203.238155</ele>
        <time>2024-11-09T20:23:08.643Z</time>
      </trkpt>
      <trkpt lat="48.64508" lon="-0.53258">
        <ele>201.416544</ele>
        <time>2024-11-09T20:23:16.249Z</time>
      </trkpt>
      <trkpt lat="48.64545" lon="-0.53238">
        <ele>200.271007</ele>
        <time>2024-11-09T20:23:22.132Z</time>
      </trkpt>
      <trkpt lat="48.64588" lon="-0.53306">
        <ele>198.408956</ele>
        <time>2024-11-09T20:23:31.855Z</time>
      </trkpt>
      <trkpt lat="48.64656" lon="-0.53377">
        <ele>196.798395</ele>
        <time>2024-11-09T20:23:45.263Z</time>
      </trkpt>
      <trkpt lat="48.64691" lon="-0.53421">
        <ele>196.410798</ele>
        <time>2024-11-09T20:23:53.211Z</time>
      </trkpt>
      <trkpt lat="48.64705" lon="-0.53433">
        <ele>196.271762</ele>
        <time>2024-11-09T20:23:56.174Z</time>
      </trkpt>
      <trkpt lat="48.64704" lon="-0.53403">
        <ele>196.10187</ele>
        <time>2024-11-09T20:23:59.906Z</time>
      </trkpt>
      <trkpt lat="48.64707" lon="-0.53369">
        <ele>195.910618</ele>
        <time>2024-11-09T20:24:04.245Z</time>
      </trkpt>
      <trkpt lat="48.64739" lon="-0.5331">
        <ele>195.896896</ele>
        <time>2024-11-09T20:24:15.512Z</time>
      </trkpt>
      <trkpt lat="48.64764" lon="-0.53252">
        <ele>196.746434</ele>
        <time>2024-11-09T20:24:27.814Z</time>
      </trkpt>
      <trkpt lat="48.64777" lon="-0.53237">
        <ele>197.051483</ele>
        <time>2024-11-09T20:24:32.431Z</time>
      </trkpt>
      <trkpt lat="48.64807" lon="-0.53217">
        <ele>197.665309</ele>
        <time>2024-11-09T20:24:42.235Z</time>
      </trkpt>
      <trkpt lat="48.6482" lon="-0.53201">
        <ele>197.981987</ele>
        <time>2024-11-09T20:24:47.651Z</time>
      </trkpt>
      <trkpt lat="48.64874" lon="-0.53117">
        <ele>199.5917</ele>
        <time>2024-11-09T20:25:14.579Z</time>
      </trkpt>
      <trkpt lat="48.64902" lon="-0.53087">
        <ele>200.462093</ele>
        <time>2024-11-09T20:25:26.892Z</time>
      </trkpt>
      <trkpt lat="48.64909" lon="-0.53071">
        <ele>200.805613</ele>
        <time>2024-11-09T20:25:31.672Z</time>
      </trkpt>
      <trkpt lat="48.64913" lon="-0.53053">
        <ele>201.128262</ele>
        <time>2024-11-09T20:25:36.050Z</time>
      </trkpt>
      <trkpt lat="48.64917" lon="-0.53014">
        <ele>201.79568</ele>
        <time>2024-11-09T20:25:44.854Z</time>
      </trkpt>
      <trkpt lat="48.64915" lon="-0.52992">
        <ele>202.164172</ele>
        <time>2024-11-09T20:25:49.556Z</time>
      </trkpt>
      <trkpt lat="48.64908" lon="-0.52969">
        <ele>202.584301</ele>
        <time>2024-11-09T20:25:54.767Z</time>
      </trkpt>
      <trkpt lat="48.64887" lon="-0.52933">
        <ele>203.406848</ele>
        <time>2024-11-09T20:26:04.359Z</time>
      </trkpt>
      <trkpt lat="48.64835" lon="-0.52805">
        <ele>205.837392</ele>
        <time>2024-11-09T20:26:31.965Z</time>
      </trkpt>
      <trkpt lat="48.6482" lon="-0.52779">
        <ele>206.400772</ele>
        <time>2024-11-09T20:26:38.914Z</time>
      </trkpt>
      <trkpt lat="48.64773" lon="-0.52722">
        <ele>207.861754</ele>
        <time>2024-11-09T20:27:00.394Z</time>
      </trkpt>
      <trkpt lat="48.64764" lon="-0.527">
        <ele>208.568891</ele>
        <time>2024-11-09T20:27:07.405Z</time>
      </trkpt>
      <trkpt lat="48.64762" lon="-0.52658">
        <ele>209.915071</ele>
        <time>2024-11-09T20:27:19.605Z</time>
      </trkpt>
      <trkpt lat="48.64758" lon="-0.52639">
        <ele>210.543947</ele>
        <time>2024-11-09T20:27:25.496Z</time>
      </trkpt>
      <trkpt lat="48.64752" lon="-0.52623">
        <ele>211.153448</ele>
        <time>2024-11-09T20:27:31.334Z</time>
      </trkpt>
      <trkpt lat="48.64709" lon="-0.52557">
        <ele>214.125823</ele>
        <time>2024-11-09T20:28:00.849Z</time>
      </trkpt>
      <trkpt lat="48.64685" lon="-0.52536">
        <ele>215.472019</ele>
        <time>2024-11-09T20:28:14.175Z</time>
      </trkpt>
      <trkpt lat="48.64706" lon="-0.52487">
        <ele>217.159796</ele>
        <time>2024-11-09T20:28:36.234Z</time>
      </trkpt>
      <trkpt lat="48.64705" lon="-0.52476">
        <ele>217.393236</ele>
        <time>2024-11-09T20:28:39.992Z</time>
      </trkpt>
      <trkpt lat="48.6471" lon="-0.52465">
        <ele>217.68655</ele>
        <time>2024-11-09T20:28:44.558Z</time>
      </trkpt>
      <trkpt lat="48.64712" lon="-0.5246">
        <ele>217.814894</ele>
        <time>2024-11-09T20:28:46.547Z</time>
      </trkpt>
      <trkpt lat="48.64719" lon="-0.52413">
        <ele>218.86425</ele>
        <time>2024-11-09T20:29:01.735Z</time>
      </trkpt>
      <trkpt lat="48.6473" lon="-0.52395">
        <ele>219.406331</ele>
        <time>2024-11-09T20:29:09.184Z</time>
      </trkpt>
      <trkpt lat="48.64769" lon="-0.52396">
        <ele>220.722576</ele>
        <time>2024-11-09T20:29:26.875Z</time>
      </trkpt>
      <trkpt lat="48.64775" lon="-0.52386">
        <ele>221.005424</ele>
        <time>2024-11-09T20:29:30.602Z</time>
      </trkpt>
      <trkpt lat="48.64779" lon="-0.52339">
        <ele>222.055103</ele>
        <time>2024-11-09T20:29:44.592Z</time>
      </trkpt>
      <trkpt lat="48.64786" lon="-0.52295">
        <ele>223.114464</ele>
        <time>2024-11-09T20:29:58.172Z</time>
      </trkpt>
      <trkpt lat="48.64793" lon="-0.52247">
        <ele>224.401815</ele>
        <time>2024-11-09T20:30:13.591Z</time>
      </trkpt>
      <trkpt lat="48.64818" lon="-0.51855">
        <ele>235.184384</ele>
        <time>2024-11-09T20:32:33.830Z</time>
      </trkpt>
      <trkpt lat="48.64765" lon="-0.5185">
        <ele>237.446712</ele>
        <time>2024-11-09T20:33:00.895Z</time>
      </trkpt>
      <trkpt lat="48.64747" lon="-0.51865">
        <ele>238.517118</ele>
        <time>2024-11-09T20:33:12.096Z</time>
      </trkpt>
      <trkpt lat="48.64749" lon="-0.51792">
        <ele>241.016479</ele>
        <time>2024-11-09T20:33:32.122Z</time>
      </trkpt>
      <trkpt lat="48.64746" lon="-0.51774">
        <ele>241.676389</ele>
        <time>2024-11-09T20:33:37.686Z</time>
      </trkpt>
      <trkpt lat="48.64745" lon="-0.51771">
        <ele>241.799235</ele>
        <time>2024-11-09T20:33:38.809Z</time>
      </trkpt>
      <trkpt lat="48.64739" lon="-0.51763">
        <ele>242.195682</ele>
        <time>2024-11-09T20:33:42.358Z</time>
      </trkpt>
      <trkpt lat="48.6473" lon="-0.51758">
        <ele>242.680471</ele>
        <time>2024-11-09T20:33:46.750Z</time>
      </trkpt>
      <trkpt lat="48.64717" lon="-0.51756">
        <ele>243.373525</ele>
        <time>2024-11-09T20:33:53.277Z</time>
      </trkpt>
      <trkpt lat="48.64689" lon="-0.51758">
        <ele>244.811714</ele>
        <time>2024-11-09T20:34:07.861Z</time>
      </trkpt>
      <trkpt lat="48.64695" lon="-0.51653">
        <ele>248.259318</ele>
        <time>2024-11-09T20:34:44.001Z</time>
      </trkpt>
      <trkpt lat="48.64704" lon="-0.51551">
        <ele>251.336498</ele>
        <time>2024-11-09T20:35:14.145Z</time>
      </trkpt>
      <trkpt lat="48.6471" lon="-0.51467">
        <ele>253.889608</ele>
        <time>2024-11-09T20:35:35.746Z</time>
      </trkpt>
      <trkpt lat="48.64719" lon="-0.51346">
        <ele>257.305212</ele>
        <time>2024-11-09T20:36:05.344Z</time>
      </trkpt>
      <trkpt lat="48.64725" lon="-0.51305">
        <ele>258.418577</ele>
        <time>2024-11-09T20:36:15.901Z</time>
      </trkpt>
      <trkpt lat="48.6473" lon="-0.51284">
        <ele>259.015132</ele>
        <time>2024-11-09T20:36:21.752Z</time>
      </trkpt>
      <trkpt lat="48.64742" lon="-0.51254">
        <ele>259.961791</ele>
        <time>2024-11-09T20:36:31.386Z</time>
      </trkpt>
      <trkpt lat="48.64801" lon="-0.51102">
        <ele>264.867204</ele>
        <time>2024-11-09T20:37:22.979Z</time>
      </trkpt>
      <trkpt lat="48.64867" lon="-0.50936">
        <ele>270.46649</ele>
        <time>2024-11-09T20:38:16.890Z</time>
      </trkpt>
      <trkpt lat="48.64875" lon="-0.50911">
        <ele>271.036916</ele>
        <time>2024-11-09T20:38:23.695Z</time>
      </trkpt>
      <trkpt lat="48.64882" lon="-0.50796">
        <ele>273.43188</ele>
        <time>2024-11-09T20:38:52.725Z</time>
      </trkpt>
      <trkpt lat="48.64882" lon="-0.50769">
        <ele>273.988738</ele>
        <time>2024-11-09T20:38:59.232Z</time>
      </trkpt>
      <trkpt lat="48.64877" lon="-0.50749">
        <ele>274.435255</ele>
        <time>2024-11-09T20:39:04.305Z</time>
      </trkpt>
      <trkpt lat="48.64846" lon="-0.50717">
        <ele>275.599632</ele>
        <time>2024-11-09T20:39:16.538Z</time>
      </trkpt>
      <trkpt lat="48.64795" lon="-0.50654">
        <ele>276.175207</ele>
        <time>2024-11-09T20:39:35.971Z</time>
      </trkpt>
      <trkpt lat="48.64764" lon="-0.50247">
        <ele>276.554971</ele>
        <time>2024-11-09T20:40:27.232Z</time>
      </trkpt>
      <trkpt lat="48.64539" lon="-0.50222">
        <ele>279.303244</ele>
        <time>2024-11-09T20:41:28.125Z</time>
      </trkpt>
      <trkpt lat="48.64512" lon="-0.5021">
        <ele>279.879062</ele>
        <time>2024-11-09T20:41:37.747Z</time>
      </trkpt>
      <trkpt lat="48.6442" lon="-0.50129">
        <ele>282.057875</ele>
        <time>2024-11-09T20:42:12.902Z</time>
      </trkpt>
      <trkpt lat="48.64378" lon="-0.50092">
        <ele>282.847697</ele>
        <time>2024-11-09T20:42:26.918Z</time>
      </trkpt>
      <trkpt lat="48.64166" lon="-0.49906">
        <ele>282.727471</ele>
        <time>2024-11-09T20:43:19.571Z</time>
      </trkpt>
      <trkpt lat="48.64143" lon="-0.49886">
        <ele>282.398809</ele>
        <time>2024-11-09T20:43:24.204Z</time>
      </trkpt>
      <trkpt lat="48.64239" lon="-0.49873">
        <ele>280.646261</ele>
        <time>2024-11-09T20:43:49.820Z</time>
      </trkpt>
      <trkpt lat="48.64309" lon="-0.49886">
        <ele>277.89361</ele>
        <time>2024-11-09T20:44:07.121Z</time>
      </trkpt>
      <trkpt lat="48.64333" lon="-0.49873">
        <ele>276.890861</ele>
        <time>2024-11-09T20:44:13.389Z</time>
      </trkpt>
      <trkpt lat="48.64364" lon="-0.49829">
        <ele>275.230159</ele>
        <time>2024-11-09T20:44:23.848Z</time>
      </trkpt>
      <trkpt lat="48.6437" lon="-0.49838">
        <ele>274.892507</ele>
        <time>2024-11-09T20:44:26.004Z</time>
      </trkpt>
      <trkpt lat="48.64401" lon="-0.4979">
        <ele>273.787453</ele>
        <time>2024-11-09T20:44:32.507Z</time>
      </trkpt>
      <trkpt lat="48.64506" lon="-0.49695">
        <ele>271.340225</ele>
        <time>2024-11-09T20:44:52.428Z</time>
      </trkpt>
      <trkpt lat="48.64539" lon="-0.49591">
        <ele>271.757367</ele>
        <time>2024-11-09T20:45:09.802Z</time>
      </trkpt>
      <trkpt lat="48.64615" lon="-0.49404">
        <ele>274.340487</ele>
        <time>2024-11-09T20:45:58.488Z</time>
      </trkpt>
      <trkpt lat="48.64642" lon="-0.49353">
        <ele>275.000843</ele>
        <time>2024-11-09T20:46:12.421Z</time>
      </trkpt>
      <trkpt lat="48.64666" lon="-0.4932">
        <ele>275.484238</ele>
        <time>2024-11-09T20:46:21.785Z</time>
      </trkpt>
      <trkpt lat="48.64727" lon="-0.49254">
        <ele>276.632394</ele>
        <time>2024-11-09T20:46:41.176Z</time>
      </trkpt>
      <trkpt lat="48.64779" lon="-0.49332">
        <ele>276.121313</ele>
        <time>2024-11-09T20:46:55.625Z</time>
      </trkpt>
      <trkpt lat="48.64874" lon="-0.49461">
        <ele>274.364529</ele>
        <time>2024-11-09T20:47:16.282Z</time>
      </trkpt>
      <trkpt lat="48.6505" lon="-0.49168">
        <ele>262.110399</ele>
        <time>2024-11-09T20:47:53.324Z</time>
      </trkpt>
      <trkpt lat="48.65076" lon="-0.49101">
        <ele>259.587801</ele>
        <time>2024-11-09T20:48:00.355Z</time>
      </trkpt>
      <trkpt lat="48.65141" lon="-0.49">
        <ele>258.091765</ele>
        <time>2024-11-09T20:48:14.081Z</time>
      </trkpt>
      <trkpt lat="48.65148" lon="-0.48966">
        <ele>258.281591</ele>
        <time>2024-11-09T20:48:19.138Z</time>
      </trkpt>
      <trkpt lat="48.65138" lon="-0.48882">
        <ele>258.732044</ele>
        <time>2024-11-09T20:48:36.801Z</time>
      </trkpt>
      <trkpt lat="48.65161" lon="-0.48855">
        <ele>258.959617</ele>
        <time>2024-11-09T20:48:51.673Z</time>
      </trkpt>
      <trkpt lat="48.65182" lon="-0.48879">
        <ele>259.692421</ele>
        <time>2024-11-09T20:49:07.044Z</time>
      </trkpt>
      <trkpt lat="48.65205" lon="-0.48919">
        <ele>261.95725</ele>
        <time>2024-11-09T20:49:29.511Z</time>
      </trkpt>
      <trkpt lat="48.65241" lon="-0.48967">
        <ele>264.996963</ele>
        <time>2024-11-09T20:50:01.725Z</time>
      </trkpt>
      <trkpt lat="48.65322" lon="-0.49038">
        <ele>270.875248</ele>
        <time>2024-11-09T20:51:04.775Z</time>
      </trkpt>
      <trkpt lat="48.65377" lon="-0.49056">
        <ele>272.729261</ele>
        <time>2024-11-09T20:51:39.540Z</time>
      </trkpt>
      <trkpt lat="48.6544" lon="-0.49096">
        <ele>275.008669</ele>
        <time>2024-11-09T20:52:06.162Z</time>
      </trkpt>
      <trkpt lat="48.65472" lon="-0.49122">
        <ele>276.2226</ele>
        <time>2024-11-09T20:52:14.917Z</time>
      </trkpt>
      <trkpt lat="48.65597" lon="-0.49264">
        <ele>274.292025</ele>
        <time>2024-11-09T20:52:40.112Z</time>
      </trkpt>
      <trkpt lat="48.65609" lon="-0.49287">
        <ele>273.963382</ele>
        <time>2024-11-09T20:52:43.308Z</time>
      </trkpt>
      <trkpt lat="48.65616" lon="-0.49313">
        <ele>273.700888</ele>
        <time>2024-11-09T20:52:46.331Z</time>
      </trkpt>
      <trkpt lat="48.65617" lon="-0.49345">
        <ele>273.976768</ele>
        <time>2024-11-09T20:52:50.223Z</time>
      </trkpt>
      <trkpt lat="48.65612" lon="-0.49412">
        <ele>274.547467</ele>
        <time>2024-11-09T20:53:00.056Z</time>
      </trkpt>
      <trkpt lat="48.6569" lon="-0.49367">
        <ele>275.613368</ele>
        <time>2024-11-09T20:53:25.523Z</time>
      </trkpt>
      <trkpt lat="48.65693" lon="-0.49355">
        <ele>275.729353</ele>
        <time>2024-11-09T20:53:28.784Z</time>
      </trkpt>
      <trkpt lat="48.65693" lon="-0.49326">
        <ele>275.973568</ele>
        <time>2024-11-09T20:53:36.267Z</time>
      </trkpt>
      <trkpt lat="48.65696" lon="-0.49319">
        <ele>276.105995</ele>
        <time>2024-11-09T20:53:38.481Z</time>
      </trkpt>
      <trkpt lat="48.65696" lon="-0.49319">
        <ele>276.114544</ele>
        <time>2024-11-09T20:53:38.597Z</time>
      </trkpt>
      <trkpt lat="48.65894" lon="-0.49226">
        <ele>281.410863</ele>
        <time>2024-11-09T20:54:49.608Z</time>
      </trkpt>
      <trkpt lat="48.65912" lon="-0.49212">
        <ele>281.668201</ele>
        <time>2024-11-09T20:54:55.470Z</time>
      </trkpt>
      <trkpt lat="48.65924" lon="-0.49191">
        <ele>281.906338</ele>
        <time>2024-11-09T20:55:00.782Z</time>
      </trkpt>
      <trkpt lat="48.66032" lon="-0.49112">
        <ele>283.338466</ele>
        <time>2024-11-09T20:55:43.741Z</time>
      </trkpt>
      <trkpt lat="48.66076" lon="-0.49364">
        <ele>283.595608</ele>
        <time>2024-11-09T20:56:15.176Z</time>
      </trkpt>
      <trkpt lat="48.66074" lon="-0.49389">
        <ele>284.103789</ele>
        <time>2024-11-09T20:56:19.238Z</time>
      </trkpt>
      <trkpt lat="48.66084" lon="-0.49392">
        <ele>284.427463</ele>
        <time>2024-11-09T20:56:23.315Z</time>
      </trkpt>
      <trkpt lat="48.66136" lon="-0.49385">
        <ele>286.057189</ele>
        <time>2024-11-09T20:56:46.449Z</time>
      </trkpt>
      <trkpt lat="48.66172" lon="-0.49398">
        <ele>287.198145</ele>
        <time>2024-11-09T20:57:05.275Z</time>
      </trkpt>
      <trkpt lat="48.6622" lon="-0.49456">
        <ele>289.130355</ele>
        <time>2024-11-09T20:57:40.473Z</time>
      </trkpt>
      <trkpt lat="48.66286" lon="-0.49501">
        <ele>291.331668</ele>
        <time>2024-11-09T20:58:20.327Z</time>
      </trkpt>
      <trkpt lat="48.66384" lon="-0.49518">
        <ele>294.35917</ele>
        <time>2024-11-09T20:59:05.324Z</time>
      </trkpt>
      <trkpt lat="48.66593" lon="-0.49585">
        <ele>293.525081</ele>
        <time>2024-11-09T21:00:08.965Z</time>
      </trkpt>
      <trkpt lat="48.66662" lon="-0.49588">
        <ele>292.750765</ele>
        <time>2024-11-09T21:00:28.519Z</time>
      </trkpt>
      <trkpt lat="48.66717" lon="-0.49585">
        <ele>292.143102</ele>
        <time>2024-11-09T21:00:43.997Z</time>
      </trkpt>
      <trkpt lat="48.66832" lon="-0.49613">
        <ele>291.662299</ele>
        <time>2024-11-09T21:01:19.005Z</time>
      </trkpt>
      <trkpt lat="48.6693" lon="-0.49644">
        <ele>291.39383</ele>
        <time>2024-11-09T21:01:53.508Z</time>
      </trkpt>
      <trkpt lat="48.67035" lon="-0.49736">
        <ele>289.419748</ele>
        <time>2024-11-09T21:02:30.946Z</time>
      </trkpt>
      <trkpt lat="48.67099" lon="-0.49737">
        <ele>287.793898</ele>
        <time>2024-11-09T21:02:46.817Z</time>
      </trkpt>
      <trkpt lat="48.6714" lon="-0.49802">
        <ele>283.978242</ele>
        <time>2024-11-09T21:03:00.344Z</time>
      </trkpt>
      <trkpt lat="48.67232" lon="-0.49856">
        <ele>277.562606</ele>
        <time>2024-11-09T21:03:22.576Z</time>
      </trkpt>
      <trkpt lat="48.6726" lon="-0.49878">
        <ele>276.018088</ele>
        <time>2024-11-09T21:03:29.849Z</time>
      </trkpt>
      <trkpt lat="48.67311" lon="-0.49975">
        <ele>272.549026</ele>
        <time>2024-11-09T21:03:49.742Z</time>
      </trkpt>
      <trkpt lat="48.6738" lon="-0.50037">
        <ele>269.186185</ele>
        <time>2024-11-09T21:04:11.062Z</time>
      </trkpt>
      <trkpt lat="48.67427" lon="-0.50105">
        <ele>267.351453</ele>
        <time>2024-11-09T21:04:28.482Z</time>
      </trkpt>
      <trkpt lat="48.67461" lon="-0.50139">
        <ele>266.187808</ele>
        <time>2024-11-09T21:04:39.357Z</time>
      </trkpt>
      <trkpt lat="48.6751" lon="-0.50161">
        <ele>264.742217</ele>
        <time>2024-11-09T21:04:52.616Z</time>
      </trkpt>
      <trkpt lat="48.67547" lon="-0.50185">
        <ele>263.270391</ele>
        <time>2024-11-09T21:05:02.907Z</time>
      </trkpt>
      <trkpt lat="48.67651" lon="-0.50205">
        <ele>258.675524</ele>
        <time>2024-11-09T21:05:28.671Z</time>
      </trkpt>
      <trkpt lat="48.67718" lon="-0.50211">
        <ele>255.776</ele>
        <time>2024-11-09T21:05:44.742Z</time>
      </trkpt>
      <trkpt lat="48.67752" lon="-0.50227">
        <ele>254.279952</ele>
        <time>2024-11-09T21:05:53.425Z</time>
      </trkpt>
      <trkpt lat="48.67826" lon="-0.5032">
        <ele>250.308723</ele>
        <time>2024-11-09T21:06:17.017Z</time>
      </trkpt>
      <trkpt lat="48.67903" lon="-0.50397">
        <ele>247.761468</ele>
        <time>2024-11-09T21:06:41.415Z</time>
      </trkpt>
      <trkpt lat="48.67932" lon="-0.5042">
        <ele>247.118454</ele>
        <time>2024-11-09T21:06:50.702Z</time>
      </trkpt>
      <trkpt lat="48.67973" lon="-0.50428">
        <ele>246.296314</ele>
        <time>2024-11-09T21:07:02.756Z</time>
      </trkpt>
      <trkpt lat="48.68073" lon="-0.50428">
        <ele>244.039704</ele>
        <time>2024-11-09T21:07:30.660Z</time>
      </trkpt>
      <trkpt lat="48.68155" lon="-0.50462">
        <ele>241.849909</ele>
        <time>2024-11-09T21:07:53.155Z</time>
      </trkpt>
      <trkpt lat="48.68201" lon="-0.50465">
        <ele>240.635273</ele>
        <time>2024-11-09T21:08:04.937Z</time>
      </trkpt>
      <trkpt lat="48.68395" lon="-0.50539">
        <ele>233.90845</ele>
        <time>2024-11-09T21:08:55.692Z</time>
      </trkpt>
      <trkpt lat="48.68421" lon="-0.50545">
        <ele>233.254382</ele>
        <time>2024-11-09T21:08:59.805Z</time>
      </trkpt>
      <trkpt lat="48.68442" lon="-0.50557">
        <ele>232.720793</ele>
        <time>2024-11-09T21:09:03.213Z</time>
      </trkpt>
      <trkpt lat="48.68462" lon="-0.50586">
        <ele>232.040801</ele>
        <time>2024-11-09T21:09:07.614Z</time>
      </trkpt>
      <trkpt lat="48.68493" lon="-0.50654">
        <ele>230.704558</ele>
        <time>2024-11-09T21:09:16.605Z</time>
      </trkpt>
      <trkpt lat="48.68506" lon="-0.50695">
        <ele>230.026616</ele>
        <time>2024-11-09T21:09:21.754Z</time>
      </trkpt>
      <trkpt lat="48.68575" lon="-0.50834">
        <ele>228.751853</ele>
        <time>2024-11-09T21:09:42.546Z</time>
      </trkpt>
      <trkpt lat="48.68616" lon="-0.50901">
        <ele>228.082566</ele>
        <time>2024-11-09T21:09:53.397Z</time>
      </trkpt>
      <trkpt lat="48.68644" lon="-0.50936">
        <ele>227.437746</ele>
        <time>2024-11-09T21:09:59.726Z</time>
      </trkpt>
      <trkpt lat="48.68697" lon="-0.51017">
        <ele>226.117252</ele>
        <time>2024-11-09T21:10:12.201Z</time>
      </trkpt>
      <trkpt lat="48.68798" lon="-0.51135">
        <ele>223.966965</ele>
        <time>2024-11-09T21:10:32.927Z</time>
      </trkpt>
      <trkpt lat="48.68838" lon="-0.51193">
        <ele>223.091325</ele>
        <time>2024-11-09T21:10:42.173Z</time>
      </trkpt>
      <trkpt lat="48.68876" lon="-0.51271">
        <ele>222.065386</ele>
        <time>2024-11-09T21:10:53.365Z</time>
      </trkpt>
      <trkpt lat="48.68943" lon="-0.51405">
        <ele>222.527523</ele>
        <time>2024-11-09T21:11:15.038Z</time>
      </trkpt>
      <trkpt lat="48.68953" lon="-0.51424">
        <ele>222.598204</ele>
        <time>2024-11-09T21:11:19.097Z</time>
      </trkpt>
      <trkpt lat="48.68943" lon="-0.51405">
        <ele>222.668884</ele>
        <time>2024-11-09T21:11:23.389Z</time>
      </trkpt>
      <trkpt lat="48.69009" lon="-0.51359">
        <ele>223.63397</ele>
        <time>2024-11-09T21:11:53.907Z</time>
      </trkpt>
      <trkpt lat="48.69074" lon="-0.51282">
        <ele>225.553514</ele>
        <time>2024-11-09T21:12:32.505Z</time>
      </trkpt>
      <trkpt lat="48.69191" lon="-0.51174">
        <ele>227.471674</ele>
        <time>2024-11-09T21:13:29.336Z</time>
      </trkpt>
      <trkpt lat="48.69252" lon="-0.51145">
        <ele>227.877528</ele>
        <time>2024-11-09T21:13:50.769Z</time>
      </trkpt>
      <trkpt lat="48.6939" lon="-0.51056">
        <ele>226.472604</ele>
        <time>2024-11-09T21:14:34.164Z</time>
      </trkpt>
      <trkpt lat="48.69405" lon="-0.51043">
        <ele>226.206555</ele>
        <time>2024-11-09T21:14:38.929Z</time>
      </trkpt>
      <trkpt lat="48.69435" lon="-0.51025">
        <ele>225.704675</ele>
        <time>2024-11-09T21:14:47.822Z</time>
      </trkpt>
      <trkpt lat="48.69464" lon="-0.51024">
        <ele>225.195447</ele>
        <time>2024-11-09T21:14:55.608Z</time>
      </trkpt>
      <trkpt lat="48.69567" lon="-0.51053">
        <ele>222.739732</ele>
        <time>2024-11-09T21:15:23.096Z</time>
      </trkpt>
      <trkpt lat="48.69583" lon="-0.5101">
        <ele>221.972677</ele>
        <time>2024-11-09T21:15:31.823Z</time>
      </trkpt>
      <trkpt lat="48.69642" lon="-0.51025">
        <ele>220.779818</ele>
        <time>2024-11-09T21:15:48.497Z</time>
      </trkpt>
      <trkpt lat="48.69725" lon="-0.5106">
        <ele>219.579237</ele>
        <time>2024-11-09T21:16:13.120Z</time>
      </trkpt>
      <trkpt lat="48.69738" lon="-0.51045">
        <ele>219.340797</ele>
        <time>2024-11-09T21:16:18.086Z</time>
      </trkpt>
      <trkpt lat="48.69839" lon="-0.51084">
        <ele>217.58198</ele>
        <time>2024-11-09T21:16:47.903Z</time>
      </trkpt>
      <trkpt lat="48.69825" lon="-0.5119">
        <ele>216.174443</ele>
        <time>2024-11-09T21:16:59.479Z</time>
      </trkpt>
      <trkpt lat="48.69808" lon="-0.51268">
        <ele>215.10168</ele>
        <time>2024-11-09T21:17:08.079Z</time>
      </trkpt>
      <trkpt lat="48.69796" lon="-0.51305">
        <ele>214.807518</ele>
        <time>2024-11-09T21:17:12.363Z</time>
      </trkpt>
      <trkpt lat="48.69782" lon="-0.51326">
        <ele>214.609608</ele>
        <time>2024-11-09T21:17:15.606Z</time>
      </trkpt>
      <trkpt lat="48.69769" lon="-0.51341">
        <ele>214.438038</ele>
        <time>2024-11-09T21:17:18.481Z</time>
      </trkpt>
      <trkpt lat="48.6975" lon="-0.51354">
        <ele>214.232944</ele>
        <time>2024-11-09T21:17:22.006Z</time>
      </trkpt>
      <trkpt lat="48.69737" lon="-0.51363">
        <ele>214.087966</ele>
        <time>2024-11-09T21:17:24.591Z</time>
      </trkpt>
      <trkpt lat="48.69724" lon="-0.51377">
        <ele>213.925081</ele>
        <time>2024-11-09T21:17:27.568Z</time>
      </trkpt>
      <trkpt lat="48.69679" lon="-0.51448">
        <ele>213.276546</ele>
        <time>2024-11-09T21:17:40.452Z</time>
      </trkpt>
      <trkpt lat="48.69659" lon="-0.51488">
        <ele>213.583061</ele>
        <time>2024-11-09T21:17:47.891Z</time>
      </trkpt>
      <trkpt lat="48.69646" lon="-0.51524">
        <ele>213.895732</ele>
        <time>2024-11-09T21:17:54.290Z</time>
      </trkpt>
      <trkpt lat="48.6961" lon="-0.51691">
        <ele>215.229563</ele>
        <time>2024-11-09T21:18:25.288Z</time>
      </trkpt>
      <trkpt lat="48.696" lon="-0.51722">
        <ele>215.64955</ele>
        <time>2024-11-09T21:18:32.500Z</time>
      </trkpt>
      <trkpt lat="48.69586" lon="-0.51767">
        <ele>216.372457</ele>
        <time>2024-11-09T21:18:43.672Z</time>
      </trkpt>
      <trkpt lat="48.69568" lon="-0.51827">
        <ele>217.311845</ele>
        <time>2024-11-09T21:18:58.430Z</time>
      </trkpt>
      <trkpt lat="48.69561" lon="-0.51856">
        <ele>217.759686</ele>
        <time>2024-11-09T21:19:05.589Z</time>
      </trkpt>
      <trkpt lat="48.69557" lon="-0.51906">
        <ele>218.480997</ele>
        <time>2024-11-09T21:19:17.064Z</time>
      </trkpt>
      <trkpt lat="48.6955" lon="-0.51949">
        <ele>219.109841</ele>
        <time>2024-11-09T21:19:25.445Z</time>
      </trkpt>
      <trkpt lat="48.69519" lon="-0.52035">
        <ele>218.82433</ele>
        <time>2024-11-09T21:19:39.986Z</time>
      </trkpt>
      <trkpt lat="48.6951" lon="-0.52062">
        <ele>218.68916</ele>
        <time>2024-11-09T21:19:43.747Z</time>
      </trkpt>
      <trkpt lat="48.69491" lon="-0.52142">
        <ele>218.314238</ele>
        <time>2024-11-09T21:19:52.705Z</time>
      </trkpt>
      <trkpt lat="48.69476" lon="-0.52226">
        <ele>217.957607</ele>
        <time>2024-11-09T21:20:01.508Z</time>
      </trkpt>
      <trkpt lat="48.69467" lon="-0.523">
        <ele>217.725821</ele>
        <time>2024-11-09T21:20:09.710Z</time>
      </trkpt>
      <trkpt lat="48.69497" lon="-0.5234">
        <ele>217.53943</ele>
        <time>2024-11-09T21:20:17.306Z</time>
      </trkpt>
      <trkpt lat="48.69512" lon="-0.52295">
        <ele>217.381677</ele>
        <time>2024-11-09T21:20:24.561Z</time>
      </trkpt>
      <trkpt lat="48.69566" lon="-0.52228">
        <ele>216.898976</ele>
        <time>2024-11-09T21:20:40.086Z</time>
      </trkpt>
      <trkpt lat="48.69592" lon="-0.5224">
        <ele>216.600318</ele>
        <time>2024-11-09T21:20:48.855Z</time>
      </trkpt>
      <trkpt lat="48.69632" lon="-0.52241">
        <ele>216.170421</ele>
        <time>2024-11-09T21:21:00.568Z</time>
      </trkpt>
      <trkpt lat="48.69722" lon="-0.52286">
        <ele>215.153883</ele>
        <time>2024-11-09T21:21:26.426Z</time>
      </trkpt>
      <trkpt lat="48.69751" lon="-0.52259">
        <ele>214.844782</ele>
        <time>2024-11-09T21:21:35.868Z</time>
      </trkpt>
      <trkpt lat="48.69821" lon="-0.52181">
        <ele>214.053946</ele>
        <time>2024-11-09T21:22:01.725Z</time>
      </trkpt>
      <trkpt lat="48.69858" lon="-0.52161">
        <ele>213.702255</ele>
        <time>2024-11-09T21:22:14.154Z</time>
      </trkpt>
      <trkpt lat="48.69945" lon="-0.5213">
        <ele>212.986183</ele>
        <time>2024-11-09T21:22:42.370Z</time>
      </trkpt>
      <trkpt lat="48.70005" lon="-0.52127">
        <ele>212.519941</ele>
        <time>2024-11-09T21:22:59.963Z</time>
      </trkpt>
      <trkpt lat="48.70065" lon="-0.5213">
        <ele>211.909879</ele>
        <time>2024-11-09T21:23:16.800Z</time>
      </trkpt>
      <trkpt lat="48.70122" lon="-0.52122">
        <ele>211.049577</ele>
        <time>2024-11-09T21:23:32.262Z</time>
      </trkpt>
      <trkpt lat="48.70162" lon="-0.52105">
        <ele>210.417307</ele>
        <time>2024-11-09T21:23:43.725Z</time>
      </trkpt>
      <trkpt lat="48.70172" lon="-0.52101">
        <ele>210.25741</ele>
        <time>2024-11-09T21:23:46.676Z</time>
      </trkpt>
      <trkpt lat="48.70199" lon="-0.52076">
        <ele>209.774808</ele>
        <time>2024-11-09T21:23:55.785Z</time>
      </trkpt>
      <trkpt lat="48.70229" lon="-0.52042">
        <ele>209.492181</ele>
        <time>2024-11-09T21:24:06.848Z</time>
      </trkpt>
      <trkpt lat="48.70261" lon="-0.52029">
        <ele>209.541004</ele>
        <time>2024-11-09T21:24:17.322Z</time>
      </trkpt>
      <trkpt lat="48.70313" lon="-0.52029">
        <ele>209.61848</ele>
        <time>2024-11-09T21:24:35.462Z</time>
      </trkpt>
      <trkpt lat="48.70302" lon="-0.52151">
        <ele>209.732608</ele>
        <time>2024-11-09T21:24:54.868Z</time>
      </trkpt>
      <trkpt lat="48.70256" lon="-0.52515">
        <ele>209.629186</ele>
        <time>2024-11-09T21:25:43.631Z</time>
      </trkpt>
      <trkpt lat="48.70249" lon="-0.52621">
        <ele>209.499533</ele>
        <time>2024-11-09T21:25:57.545Z</time>
      </trkpt>
      <trkpt lat="48.70261" lon="-0.5276">
        <ele>208.818233</ele>
        <time>2024-11-09T21:26:15.346Z</time>
      </trkpt>
      <trkpt lat="48.70279" lon="-0.52881">
        <ele>207.867017</ele>
        <time>2024-11-09T21:26:29.891Z</time>
      </trkpt>
      <trkpt lat="48.70283" lon="-0.5292">
        <ele>207.562902</ele>
        <time>2024-11-09T21:26:34.206Z</time>
      </trkpt>
      <trkpt lat="48.70281" lon="-0.52927">
        <ele>207.506528</ele>
        <time>2024-11-09T21:26:34.999Z</time>
      </trkpt>
      <trkpt lat="48.70333" lon="-0.52974">
        <ele>206.291805</ele>
        <time>2024-11-09T21:26:44.067Z</time>
      </trkpt>
      <trkpt lat="48.70339" lon="-0.52979">
        <ele>206.137654</ele>
        <time>2024-11-09T21:26:45.035Z</time>
      </trkpt>
      <trkpt lat="48.70421" lon="-0.53055">
        <ele>203.927534</ele>
        <time>2024-11-09T21:26:59.141Z</time>
      </trkpt>
      <trkpt lat="48.70446" lon="-0.53078">
        <ele>203.247863</ele>
        <time>2024-11-09T21:27:03.670Z</time>
      </trkpt>
      <trkpt lat="48.7048" lon="-0.53108">
        <ele>203.179841</ele>
        <time>2024-11-09T21:27:10.204Z</time>
      </trkpt>
      <trkpt lat="48.70487" lon="-0.53115">
        <ele>203.180323</ele>
        <time>2024-11-09T21:27:11.681Z</time>
      </trkpt>
      <trkpt lat="48.70491" lon="-0.53119">
        <ele>203.180609</ele>
        <time>2024-11-09T21:27:12.548Z</time>
      </trkpt>
      <trkpt lat="48.7053" lon="-0.53155">
        <ele>203.183318</ele>
        <time>2024-11-09T21:27:21.677Z</time>
      </trkpt>
      <trkpt lat="48.70543" lon="-0.53167">
        <ele>203.184222</ele>
        <time>2024-11-09T21:27:25.113Z</time>
      </trkpt>
      <trkpt lat="48.70584" lon="-0.53207">
        <ele>203.18708</ele>
        <time>2024-11-09T21:27:37.474Z</time>
      </trkpt>
      <trkpt lat="48.70602" lon="-0.53224">
        <ele>203.205873</ele>
        <time>2024-11-09T21:27:42.446Z</time>
      </trkpt>
      <trkpt lat="48.70622" lon="-0.5325">
        <ele>203.627472</ele>
        <time>2024-11-09T21:27:47.886Z</time>
      </trkpt>
      <trkpt lat="48.70635" lon="-0.5326">
        <ele>203.862033</ele>
        <time>2024-11-09T21:27:51.324Z</time>
      </trkpt>
      <trkpt lat="48.7064" lon="-0.53257">
        <ele>203.942839</ele>
        <time>2024-11-09T21:27:52.658Z</time>
      </trkpt>
      <trkpt lat="48.70645" lon="-0.53257">
        <ele>204.023103</ele>
        <time>2024-11-09T21:27:53.892Z</time>
      </trkpt>
      <trkpt lat="48.70654" lon="-0.53264">
        <ele>204.185154</ele>
        <time>2024-11-09T21:27:56.488Z</time>
      </trkpt>
      <trkpt lat="48.70658" lon="-0.5327">
        <ele>204.268926</ele>
        <time>2024-11-09T21:27:57.781Z</time>
      </trkpt>
      <trkpt lat="48.7066" lon="-0.53285">
        <ele>204.432179</ele>
        <time>2024-11-09T21:28:00.468Z</time>
      </trkpt>
      <trkpt lat="48.70657" lon="-0.53299">
        <ele>204.589605</ele>
        <time>2024-11-09T21:28:02.999Z</time>
      </trkpt>
      <trkpt lat="48.70654" lon="-0.53304">
        <ele>204.669433</ele>
        <time>2024-11-09T21:28:04.381Z</time>
      </trkpt>
      <trkpt lat="48.70644" lon="-0.5331">
        <ele>204.836814</ele>
        <time>2024-11-09T21:28:07.162Z</time>
      </trkpt>
      <trkpt lat="48.70634" lon="-0.53306">
        <ele>205.005163</ele>
        <time>2024-11-09T21:28:10.136Z</time>
      </trkpt>
      <trkpt lat="48.70628" lon="-0.53297">
        <ele>205.14481</ele>
        <time>2024-11-09T21:28:12.595Z</time>
      </trkpt>
      <trkpt lat="48.70626" lon="-0.53278">
        <ele>205.350462</ele>
        <time>2024-11-09T21:28:16.350Z</time>
      </trkpt>
      <trkpt lat="48.70628" lon="-0.5327">
        <ele>205.433585</ele>
        <time>2024-11-09T21:28:17.986Z</time>
      </trkpt>
      <trkpt lat="48.70635" lon="-0.5326">
        <ele>205.598205</ele>
        <time>2024-11-09T21:28:21.065Z</time>
      </trkpt>
      <trkpt lat="48.7064" lon="-0.53257">
        <ele>205.679012</ele>
        <time>2024-11-09T21:28:22.658Z</time>
      </trkpt>
      <trkpt lat="48.70647" lon="-0.53252">
        <ele>205.803684</ele>
        <time>2024-11-09T21:28:25.087Z</time>
      </trkpt>
      <trkpt lat="48.70659" lon="-0.53234">
        <ele>206.086288</ele>
        <time>2024-11-09T21:28:30.332Z</time>
      </trkpt>
      <trkpt lat="48.70663" lon="-0.53232">
        <ele>206.191631</ele>
        <time>2024-11-09T21:28:31.527Z</time>
      </trkpt>
      <trkpt lat="48.70698" lon="-0.53222">
        <ele>207.149193</ele>
        <time>2024-11-09T21:28:43.033Z</time>
      </trkpt>
      <trkpt lat="48.70735" lon="-0.53219">
        <ele>208.145478</ele>
        <time>2024-11-09T21:28:57.194Z</time>
      </trkpt>
      <trkpt lat="48.70761" lon="-0.5321">
        <ele>208.87039</ele>
        <time>2024-11-09T21:29:07.132Z</time>
      </trkpt>
      <trkpt lat="48.70838" lon="-0.53163">
        <ele>211.045762</ele>
        <time>2024-11-09T21:29:34.839Z</time>
      </trkpt>
      <trkpt lat="48.70887" lon="-0.53147">
        <ele>211.770394</ele>
        <time>2024-11-09T21:29:49.456Z</time>
      </trkpt>
      <trkpt lat="48.70975" lon="-0.53126">
        <ele>213.094989</ele>
        <time>2024-11-09T21:30:13.642Z</time>
      </trkpt>
      <trkpt lat="48.71031" lon="-0.531">
        <ele>213.905795</ele>
        <time>2024-11-09T21:30:27.417Z</time>
      </trkpt>
      <trkpt lat="48.71038" lon="-0.53096">
        <ele>214.000743</ele>
        <time>2024-11-09T21:30:29.121Z</time>
      </trkpt>
      <trkpt lat="48.71095" lon="-0.53124">
        <ele>214.779799</ele>
        <time>2024-11-09T21:30:43.301Z</time>
      </trkpt>
      <trkpt lat="48.71118" lon="-0.5312">
        <ele>215.085089</ele>
        <time>2024-11-09T21:30:49.576Z</time>
      </trkpt>
      <trkpt lat="48.71159" lon="-0.53104">
        <ele>215.630925</ele>
        <time>2024-11-09T21:31:01.479Z</time>
      </trkpt>
      <trkpt lat="48.71162" lon="-0.53119">
        <ele>215.762049</ele>
        <time>2024-11-09T21:31:04.415Z</time>
      </trkpt>
      <trkpt lat="48.71183" lon="-0.53107">
        <ele>216.167618</ele>
        <time>2024-11-09T21:31:11.480Z</time>
      </trkpt>
      <trkpt lat="48.71214" lon="-0.53082">
        <ele>217.023511</ele>
        <time>2024-11-09T21:31:23.502Z</time>
      </trkpt>
      <trkpt lat="48.71223" lon="-0.53075">
        <ele>217.278514</ele>
        <time>2024-11-09T21:31:27.154Z</time>
      </trkpt>
      <trkpt lat="48.71232" lon="-0.53069">
        <ele>217.512359</ele>
        <time>2024-11-09T21:31:30.872Z</time>
      </trkpt>
      <trkpt lat="48.71255" lon="-0.53057">
        <ele>218.118523</ele>
        <time>2024-11-09T21:31:40.345Z</time>
      </trkpt>
      <trkpt lat="48.71276" lon="-0.53052">
        <ele>218.628919</ele>
        <time>2024-11-09T21:31:48.089Z</time>
      </trkpt>
      <trkpt lat="48.71295" lon="-0.53053">
        <ele>219.098866</ele>
        <time>2024-11-09T21:31:55.464Z</time>
      </trkpt>
      <trkpt lat="48.71303" lon="-0.53055">
        <ele>219.299909</ele>
        <time>2024-11-09T21:31:58.594Z</time>
      </trkpt>
      <trkpt lat="48.71312" lon="-0.53057">
        <ele>219.513019</ele>
        <time>2024-11-09T21:32:01.452Z</time>
      </trkpt>
      <trkpt lat="48.7133" lon="-0.53069">
        <ele>219.995701</ele>
        <time>2024-11-09T21:32:07.703Z</time>
      </trkpt>
      <trkpt lat="48.71353" lon="-0.53093">
        <ele>220.518481</ele>
        <time>2024-11-09T21:32:18.308Z</time>
      </trkpt>
      <trkpt lat="48.71358" lon="-0.53098">
        <ele>220.590476</ele>
        <time>2024-11-09T21:32:20.338Z</time>
      </trkpt>
      <trkpt lat="48.71369" lon="-0.53111">
        <ele>220.779441</ele>
        <time>2024-11-09T21:32:24.963Z</time>
      </trkpt>
      <trkpt lat="48.71389" lon="-0.53107">
        <ele>221.052392</ele>
        <time>2024-11-09T21:32:31.449Z</time>
      </trkpt>
      <trkpt lat="48.71403" lon="-0.53103">
        <ele>221.240618</ele>
        <time>2024-11-09T21:32:36.235Z</time>
      </trkpt>
      <trkpt lat="48.71437" lon="-0.53091">
        <ele>221.699049</ele>
        <time>2024-11-09T21:32:45.157Z</time>
      </trkpt>
      <trkpt lat="48.71453" lon="-0.53086">
        <ele>221.923037</ele>
        <time>2024-11-09T21:32:49.399Z</time>
      </trkpt>
      <trkpt lat="48.71471" lon="-0.53083">
        <ele>222.15631</ele>
        <time>2024-11-09T21:32:53.931Z</time>
      </trkpt>
      <trkpt lat="48.71473" lon="-0.53079">
        <ele>222.203039</ele>
        <time>2024-11-09T21:32:54.770Z</time>
      </trkpt>
      <trkpt lat="48.71478" lon="-0.53072">
        <ele>222.293169</ele>
        <time>2024-11-09T21:32:56.525Z</time>
      </trkpt>
      <trkpt lat="48.71496" lon="-0.5308">
        <ele>222.543307</ele>
        <time>2024-11-09T21:33:02.092Z</time>
      </trkpt>
      <trkpt lat="48.71545" lon="-0.53101">
        <ele>222.328477</ele>
        <time>2024-11-09T21:33:15.040Z</time>
      </trkpt>
      <trkpt lat="48.71559" lon="-0.53107">
        <ele>222.185709</ele>
        <time>2024-11-09T21:33:18.437Z</time>
      </trkpt>
      <trkpt lat="48.71622" lon="-0.53108">
        <ele>221.565051</ele>
        <time>2024-11-09T21:33:36.019Z</time>
      </trkpt>
      <trkpt lat="48.71659" lon="-0.5312">
        <ele>221.189904</ele>
        <time>2024-11-09T21:33:46.636Z</time>
      </trkpt>
      <trkpt lat="48.71707" lon="-0.53153">
        <ele>220.780848</ele>
        <time>2024-11-09T21:34:01.765Z</time>
      </trkpt>
      <trkpt lat="48.71838" lon="-0.53261">
        <ele>219.946716</ele>
        <time>2024-11-09T21:34:46.917Z</time>
      </trkpt>
      <trkpt lat="48.71873" lon="-0.5332">
        <ele>220.276142</ele>
        <time>2024-11-09T21:35:04.870Z</time>
      </trkpt>
      <trkpt lat="48.71915" lon="-0.5341">
        <ele>220.800566</ele>
        <time>2024-11-09T21:35:31.936Z</time>
      </trkpt>
      <trkpt lat="48.71932" lon="-0.53461">
        <ele>221.074697</ele>
        <time>2024-11-09T21:35:46.276Z</time>
      </trkpt>
      <trkpt lat="48.7195" lon="-0.5355">
        <ele>221.014012</ele>
        <time>2024-11-09T21:36:08.249Z</time>
      </trkpt>
      <trkpt lat="48.71925" lon="-0.53695">
        <ele>220.488801</ele>
        <time>2024-11-09T21:36:27.236Z</time>
      </trkpt>
      <trkpt lat="48.71913" lon="-0.5374">
        <ele>220.320783</ele>
        <time>2024-11-09T21:36:32.432Z</time>
      </trkpt>
      <trkpt lat="48.71889" lon="-0.53827">
        <ele>219.256577</ele>
        <time>2024-11-09T21:36:42.511Z</time>
      </trkpt>
      <trkpt lat="48.71879" lon="-0.53887">
        <ele>218.47417</ele>
        <time>2024-11-09T21:36:49.161Z</time>
      </trkpt>
      <trkpt lat="48.71854" lon="-0.54051">
        <ele>216.303183</ele>
        <time>2024-11-09T21:37:07.661Z</time>
      </trkpt>
      <trkpt lat="48.7186" lon="-0.54055">
        <ele>216.168034</ele>
        <time>2024-11-09T21:37:08.699Z</time>
      </trkpt>
      <trkpt lat="48.71862" lon="-0.54059">
        <ele>216.10024</ele>
        <time>2024-11-09T21:37:09.214Z</time>
      </trkpt>
      <trkpt lat="48.71863" lon="-0.54069">
        <ele>215.961809</ele>
        <time>2024-11-09T21:37:10.247Z</time>
      </trkpt>
      <trkpt lat="48.7186" lon="-0.54078">
        <ele>215.822282</ele>
        <time>2024-11-09T21:37:11.297Z</time>
      </trkpt>
      <trkpt lat="48.71855" lon="-0.54083">
        <ele>215.687507</ele>
        <time>2024-11-09T21:37:12.303Z</time>
      </trkpt>
      <trkpt lat="48.71848" lon="-0.54083">
        <ele>215.551429</ele>
        <time>2024-11-09T21:37:13.316Z</time>
      </trkpt>
      <trkpt lat="48.71844" lon="-0.54079">
        <ele>215.442507</ele>
        <time>2024-11-09T21:37:14.115Z</time>
      </trkpt>
      <trkpt lat="48.71825" lon="-0.54078">
        <ele>215.030153</ele>
        <time>2024-11-09T21:37:17.124Z</time>
      </trkpt>
      <trkpt lat="48.71817" lon="-0.54079">
        <ele>214.86801</ele>
        <time>2024-11-09T21:37:18.292Z</time>
      </trkpt>
      <trkpt lat="48.71806" lon="-0.54094">
        <ele>214.54089</ele>
        <time>2024-11-09T21:37:20.796Z</time>
      </trkpt>
      <trkpt lat="48.7179" lon="-0.54099">
        <ele>214.188765</ele>
        <time>2024-11-09T21:37:23.435Z</time>
      </trkpt>
      <trkpt lat="48.71697" lon="-0.54112">
        <ele>212.329139</ele>
        <time>2024-11-09T21:37:38.032Z</time>
      </trkpt>
      <trkpt lat="48.71613" lon="-0.54115">
        <ele>210.897832</ele>
        <time>2024-11-09T21:37:51.168Z</time>
      </trkpt>
      <trkpt lat="48.7157" lon="-0.5413">
        <ele>210.14973</ele>
        <time>2024-11-09T21:37:59.293Z</time>
      </trkpt>
      <trkpt lat="48.71549" lon="-0.54132">
        <ele>210.036565</ele>
        <time>2024-11-09T21:38:04.279Z</time>
      </trkpt>
      <trkpt lat="48.71518" lon="-0.5413">
        <ele>210.672719</ele>
        <time>2024-11-09T21:38:12.900Z</time>
      </trkpt>
      <trkpt lat="48.71485" lon="-0.54122">
        <ele>211.36367</ele>
        <time>2024-11-09T21:38:23.911Z</time>
      </trkpt>
      <trkpt lat="48.71443" lon="-0.541">
        <ele>212.280258</ele>
        <time>2024-11-09T21:38:39.999Z</time>
      </trkpt>
      <trkpt lat="48.71418" lon="-0.5408">
        <ele>212.86172</ele>
        <time>2024-11-09T21:38:50.314Z</time>
      </trkpt>
      <trkpt lat="48.71383" lon="-0.54058">
        <ele>213.61165</ele>
        <time>2024-11-09T21:39:02.964Z</time>
      </trkpt>
      <trkpt lat="48.71356" lon="-0.54047">
        <ele>213.454068</ele>
        <time>2024-11-09T21:39:10.567Z</time>
      </trkpt>
      <trkpt lat="48.71329" lon="-0.54035">
        <ele>213.29344</ele>
        <time>2024-11-09T21:39:16.992Z</time>
      </trkpt>
      <trkpt lat="48.71307" lon="-0.5402">
        <ele>213.155824</ele>
        <time>2024-11-09T21:39:21.664Z</time>
      </trkpt>
      <trkpt lat="48.71289" lon="-0.54013">
        <ele>213.049266</ele>
        <time>2024-11-09T21:39:25.008Z</time>
      </trkpt>
      <trkpt lat="48.71202" lon="-0.54015">
        <ele>212.596783</ele>
        <time>2024-11-09T21:39:39.274Z</time>
      </trkpt>
      <trkpt lat="48.7116" lon="-0.54019">
        <ele>212.596783</ele>
        <time>2024-11-09T21:39:45.882Z</time>
      </trkpt>
      <trkpt lat="48.71151" lon="-0.5402">
        <ele>212.596783</ele>
        <time>2024-11-09T21:39:47.314Z</time>
      </trkpt>
      <trkpt lat="48.71149" lon="-0.53978">
        <ele>212.596783</ele>
        <time>2024-11-09T21:39:51.525Z</time>
      </trkpt>
      <trkpt lat="48.71148" lon="-0.5395">
        <ele>212.596783</ele>
        <time>2024-11-09T21:39:54.310Z</time>
      </trkpt>
      <trkpt lat="48.71118" lon="-0.5395">
        <ele>212.596783</ele>
        <time>2024-11-09T21:39:59.192Z</time>
      </trkpt>
    </trkseg>
  </trk>
</gpx>